| time (UTC) | temp C | wind direction | speed KPH | gust KPH | rain 1hr cm | rain 24hr cm | rain mn cm | humidity % | barometer mb |
| 20260509080106 | 26 | 180 | 4.8 | 9.7 | 0.00 | 0.00 | 0.00 | 33 | 1012.5 |
| 20260509080006 | 26 | 225 | 4.8 | 9.7 | 0.00 | 0.00 | 0.00 | 33 | 1012.5 |
| 20260509075906 | 26 | 0 | 4.8 | 9.7 | 0.00 | 0.00 | 0.00 | 34 | 1012.7 |
| 20260509075806 | 26 | 45 | 4.8 | 9.7 | 0.00 | 0.00 | 0.00 | 34 | 1012.5 |
| 20260509075705 | 26 | 45 | 4.8 | 9.7 | 0.00 | 0.00 | 0.00 | 34 | 1012.8 |
| 20260509075606 | 25 | 45 | 3.2 | 9.7 | 0.00 | 0.00 | 0.00 | 34 | 1012.8 |
| 20260509075506 | 25 | 45 | 3.2 | 9.7 | 0.00 | 0.00 | 0.00 | 34 | 1012.9 |
| 20260509075406 | 25 | 180 | 4.8 | 9.7 | 0.00 | 0.00 | 0.00 | 34 | 1012.7 |
| 20260509075306 | 25 | 225 | 4.8 | 9.7 | 0.00 | 0.00 | 0.00 | 33 | 1012.7 |
| 20260509075206 | 25 | 45 | 4.8 | 9.7 | 0.00 | 0.00 | 0.00 | 33 | 1012.9 |
| 20260509075106 | 25 | 45 | 4.8 | 9.7 | 0.00 | 0.00 | 0.00 | 33 | 1012.6 |
| 20260509075006 | 25 | 0 | 4.8 | 9.7 | 0.00 | 0.00 | 0.00 | 33 | 1012.6 |
| 20260509074905 | 25 | 0 | 4.8 | 9.7 | 0.00 | 0.00 | 0.00 | 33 | 1012.6 |
| 20260509074806 | 26 | 0 | 4.8 | 11.3 | 0.00 | 0.00 | 0.00 | 33 | 1012.7 |
| 20260509074706 | 26 | 225 | 4.8 | 11.3 | 0.00 | 0.00 | 0.00 | 33 | 1012.8 |
| 20260509074606 | 26 | 0 | 3.2 | 14.5 | 0.00 | 0.00 | 0.00 | 33 | 1012.7 |
| 20260509074505 | 26 | 180 | 3.2 | 14.5 | 0.00 | 0.00 | 0.00 | 33 | 1012.7 |
| 20260509074406 | 26 | 225 | 4.8 | 14.5 | 0.00 | 0.00 | 0.00 | 33 | 1012.8 |
| 20260509074306 | 26 | 180 | 4.8 | 14.5 | 0.00 | 0.00 | 0.00 | 33 | 1012.7 |
| 20260509074206 | 26 | 0 | 4.8 | 14.5 | 0.00 | 0.00 | 0.00 | 33 | 1012.7 |
| 20260509074105 | 26 | 180 | 4.8 | 14.5 | 0.00 | 0.00 | 0.00 | 33 | 1012.7 |
| 20260509074006 | 26 | 0 | 4.8 | 14.5 | 0.00 | 0.00 | 0.00 | 32 | 1012.8 |
| 20260509073906 | 26 | 225 | 4.8 | 14.5 | 0.00 | 0.00 | 0.00 | 32 | 1012.7 |
| 20260509073805 | 26 | 180 | 6.4 | 14.5 | 0.00 | 0.00 | 0.00 | 32 | 1012.8 |
| 20260509073706 | 26 | 180 | 8.0 | 14.5 | 0.00 | 0.00 | 0.00 | 32 | 1012.7 |
| 20260509073606 | 26 | 180 | 4.8 | 11.3 | 0.00 | 0.00 | 0.00 | 32 | 1012.7 |
| 20260509073506 | 26 | 0 | 4.8 | 9.7 | 0.00 | 0.00 | 0.00 | 32 | 1012.7 |
| 20260509073406 | 26 | 0 | 4.8 | 9.7 | 0.00 | 0.00 | 0.00 | 32 | 1012.8 |
| 20260509073306 | 26 | 225 | 3.2 | 9.7 | 0.00 | 0.00 | 0.00 | 32 | 1012.8 |
| 20260509073206 | 26 | 0 | 3.2 | 9.7 | 0.00 | 0.00 | 0.00 | 32 | 1012.7 |
| 20260509073005 | 26 | 0 | 4.8 | 12.9 | 0.00 | 0.00 | 0.00 | 32 | 1012.9 |
| 20260509072906 | 26 | 180 | 3.2 | 12.9 | 0.00 | 0.00 | 0.00 | 31 | 1012.9 |
| 20260509072806 | 26 | 0 | 3.2 | 12.9 | 0.00 | 0.00 | 0.00 | 32 | 1012.7 |
| 20260509072705 | 26 | 0 | 3.2 | 12.9 | 0.00 | 0.00 | 0.00 | 31 | 1012.7 |
| 20260509072605 | 26 | 180 | 4.8 | 12.9 | 0.00 | 0.00 | 0.00 | 31 | 1012.7 |
| 20260509072506 | 26 | 0 | 4.8 | 12.9 | 0.00 | 0.00 | 0.00 | 31 | 1012.8 |
| 20260509072405 | 26 | 3 | 12.9 | 0.0 | 0.00 | 0.00 | 0.00 | 31 | 1012.7 |
| 20260509072205 | 26 | 0 | 4.8 | 12.9 | 0.00 | 0.00 | 0.00 | 31 | 1012.8 |
| 20260509072106 | 26 | 225 | 3.2 | 11.3 | 0.00 | 0.00 | 0.00 | 31 | 1012.8 |
| 20260509072006 | 26 | 0 | 3.2 | 11.3 | 0.00 | 0.00 | 0.00 | 32 | 1012.7 |
| 20260509071805 | 26 | 0 | 4.8 | 11.3 | 0.00 | 0.00 | 0.00 | 31 | 1012.9 |
| 20260509071706 | 26 | 180 | 4.8 | 11.3 | 0.00 | 0.00 | 0.00 | 31 | 1012.8 |
| 20260509071606 | 26 | 180 | 4.8 | 11.3 | 0.00 | 0.00 | 0.00 | 31 | 1012.8 |
| 20260509071405 | 26 | 180 | 4.8 | 12.9 | 0.00 | 0.00 | 0.00 | 31 | 1012.9 |
| 20260509071306 | 26 | 0 | 4.8 | 12.9 | 0.00 | 0.00 | 0.00 | 31 | 1013.0 |
| 20260509071206 | 26 | 180 | 3.2 | 12.9 | 0.00 | 0.00 | 0.00 | 31 | 1012.9 |
| 20260509071105 | 26 | 0 | 3.2 | 12.9 | 0.00 | 0.00 | 0.00 | 31 | 1012.9 |
| 20260509071005 | 26 | 225 | 4.8 | 12.9 | 0.00 | 0.00 | 0.00 | 31 | 1013.0 |
| 20260509070906 | 26 | 0 | 4.8 | 14.5 | 0.00 | 0.00 | 0.00 | 31 | 1013.0 |
| 20260509070806 | 26 | 0 | 4.8 | 14.5 | 0.00 | 0.00 | 0.00 | 31 | 1013.1 |
| 20260509070705 | 26 | 180 | 4.8 | 14.5 | 0.00 | 0.00 | 0.00 | 31 | 1013.1 |
| 20260509070606 | 26 | 180 | 4.8 | 14.5 | 0.00 | 0.00 | 0.00 | 31 | 1013.0 |
| 20260509070506 | 26 | 0 | 6.4 | 14.5 | 0.00 | 0.00 | 0.00 | 31 | 1013.1 |
| 20260509070405 | 26 | 180 | 4.8 | 14.5 | 0.00 | 0.00 | 0.00 | 31 | 1013.1 |
| 20260509070305 | 26 | 180 | 6.4 | 14.5 | 0.00 | 0.00 | 0.00 | 31 | 1013.2 |
| 20260509070206 | 26 | 180 | 4.8 | 14.5 | 0.00 | 0.00 | 0.00 | 30 | 1013.0 |
| 20260509070106 | 26 | 0 | 6.4 | 14.5 | 0.00 | 0.00 | 0.00 | 30 | 1013.2 |
| 20260509070006 | 26 | 180 | 8.0 | 14.5 | 0.00 | 0.00 | 0.00 | 29 | 1013.2 |
| 20260509065906 | 26 | 0 | 6.4 | 14.5 | 0.00 | 0.00 | 0.00 | 29 | 1013.2 |
| 20260509065806 | 26 | 180 | 6.4 | 14.5 | 0.00 | 0.00 | 0.00 | 29 | 1013.2 |
| 20260509065706 | 26 | 180 | 4.8 | 14.5 | 0.00 | 0.00 | 0.00 | 30 | 1013.2 |
| 20260509065606 | 26 | 0 | 6.4 | 14.5 | 0.00 | 0.00 | 0.00 | 30 | 1013.2 |
| 20260509065506 | 26 | 180 | 8.0 | 14.5 | 0.00 | 0.00 | 0.00 | 30 | 1013.2 |
| 20260509065406 | 26 | 180 | 6.4 | 12.9 | 0.00 | 0.00 | 0.00 | 30 | 1013.1 |
| 20260509065306 | 26 | 180 | 4.8 | 11.3 | 0.00 | 0.00 | 0.00 | 30 | 1013.1 |
| 20260509065206 | 26 | 180 | 4.8 | 11.3 | 0.00 | 0.00 | 0.00 | 29 | 1013.2 |
| 20260509065106 | 26 | 180 | 4.8 | 11.3 | 0.00 | 0.00 | 0.00 | 29 | 1013.2 |
| 20260509065006 | 26 | 0 | 4.8 | 11.3 | 0.00 | 0.00 | 0.00 | 29 | 1013.2 |
| 20260509064906 | 26 | 0 | 4.8 | 11.3 | 0.00 | 0.00 | 0.00 | 29 | 1013.3 |
| 20260509064806 | 26 | 180 | 4.8 | 11.3 | 0.00 | 0.00 | 0.00 | 29 | 1013.2 |
| 20260509064706 | 26 | 0 | 4.8 | 9.7 | 0.00 | 0.00 | 0.00 | 29 | 1013.2 |
| 20260509064605 | 26 | 180 | 4.8 | 9.7 | 0.00 | 0.00 | 0.00 | 29 | 1013.2 |
| 20260509064505 | 26 | 45 | 4.8 | 9.7 | 0.00 | 0.00 | 0.00 | 29 | 1013.2 |
| 20260509064406 | 26 | 0 | 4.8 | 9.7 | 0.00 | 0.00 | 0.00 | 28 | 1013.4 |
| 20260509064306 | 26 | 0 | 4.8 | 9.7 | 0.00 | 0.00 | 0.00 | 28 | 1013.2 |
| 20260509064205 | 26 | 225 | 4.8 | 9.7 | 0.00 | 0.00 | 0.00 | 28 | 1013.3 |
| 20260509064105 | 26 | 0 | 4.8 | 14.5 | 0.00 | 0.00 | 0.00 | 28 | 1013.5 |
| 20260509064005 | 26 | 225 | 4.8 | 14.5 | 0.00 | 0.00 | 0.00 | 28 | 1013.5 |
| 20260509063905 | 26 | 0 | 4.8 | 14.5 | 0.00 | 0.00 | 0.00 | 28 | 1013.5 |
| 20260509063805 | 26 | 2 | 14.5 | 0.0 | 0.00 | 0.00 | 0.00 | 28 | 1013.4 |
| 20260509063705 | 26 | 0 | 1.6 | 14.5 | 0.00 | 0.00 | 0.00 | 28 | 1013.3 |
| 20260509063605 | 26 | 0 | 1.6 | 14.5 | 0.00 | 0.00 | 0.00 | 28 | 1013.4 |
| 20260509063505 | 26 | 45 | 4.8 | 14.5 | 0.00 | 0.00 | 0.00 | 28 | 1013.4 |
| 20260509063405 | 26 | 3 | 14.5 | 0.0 | 0.00 | 0.00 | 0.00 | 28 | 1013.4 |
| 20260509063305 | 26 | 45 | 4.8 | 14.5 | 0.00 | 0.00 | 0.00 | 28 | 1013.5 |
| 20260509063205 | 26 | 0 | 4.8 | 14.5 | 0.00 | 0.00 | 0.00 | 28 | 1013.4 |
| 20260509063105 | 26 | 0 | 4.8 | 14.5 | 0.00 | 0.00 | 0.00 | 29 | 1013.6 |
| 20260509063005 | 26 | 225 | 4.8 | 14.5 | 0.00 | 0.00 | 0.00 | 28 | 1013.4 |
| 20260509062905 | 26 | 180 | 6.4 | 14.5 | 0.00 | 0.00 | 0.00 | 28 | 1013.6 |
| 20260509062805 | 26 | 45 | 8.0 | 14.5 | 0.00 | 0.00 | 0.00 | 28 | 1013.4 |
| 20260509062705 | 26 | 45 | 8.0 | 14.5 | 0.00 | 0.00 | 0.00 | 28 | 1013.5 |
| 20260509062605 | 26 | 90 | 6.4 | 14.5 | 0.00 | 0.00 | 0.00 | 28 | 1013.6 |
| 20260509062505 | 26 | 45 | 8.0 | 14.5 | 0.00 | 0.00 | 0.00 | 27 | 1013.4 |
| 20260509062405 | 26 | 45 | 6.4 | 14.5 | 0.00 | 0.00 | 0.00 | 27 | 1013.5 |
| 20260509062306 | 26 | 45 | 4.8 | 11.3 | 0.00 | 0.00 | 0.00 | 27 | 1013.5 |
| 20260509062205 | 26 | 90 | 4.8 | 11.3 | 0.00 | 0.00 | 0.00 | 27 | 1013.7 |
| 20260509062105 | 26 | 180 | 4.8 | 12.9 | 0.00 | 0.00 | 0.00 | 27 | 1013.5 |
| 20260509062005 | 26 | 90 | 4.8 | 12.9 | 0.00 | 0.00 | 0.00 | 27 | 1013.5 |
| 20260509061906 | 26 | 180 | 4.8 | 14.5 | 0.00 | 0.00 | 0.00 | 28 | 1013.5 |
| 20260509061805 | 26 | 180 | 4.8 | 14.5 | 0.00 | 0.00 | 0.00 | 27 | 1013.6 |
| 20260509061705 | 26 | 180 | 4.8 | 14.5 | 0.00 | 0.00 | 0.00 | 27 | 1013.6 |
| 20260509061605 | 26 | 180 | 4.8 | 14.5 | 0.00 | 0.00 | 0.00 | 28 | 1013.6 |
| 20260509061505 | 26 | 180 | 4.8 | 14.5 | 0.00 | 0.00 | 0.00 | 28 | 1013.7 |
| 20260509061405 | 26 | 180 | 4.8 | 14.5 | 0.00 | 0.00 | 0.00 | 27 | 1013.8 |
| 20260509061305 | 26 | 180 | 6.4 | 16.1 | 0.00 | 0.00 | 0.00 | 27 | 1013.7 |
| 20260509061205 | 26 | 180 | 6.4 | 16.1 | 0.00 | 0.00 | 0.00 | 27 | 1013.6 |
| 20260509061105 | 26 | 180 | 8.0 | 16.1 | 0.00 | 0.00 | 0.00 | 26 | 1013.7 |
| 20260509061005 | 26 | 180 | 6.4 | 16.1 | 0.00 | 0.00 | 0.00 | 26 | 1013.7 |
| 20260509060905 | 26 | 90 | 4.8 | 16.1 | 0.00 | 0.00 | 0.00 | 26 | 1013.5 |
| 20260509060805 | 26 | 180 | 6.4 | 16.1 | 0.00 | 0.00 | 0.00 | 26 | 1013.5 |
| 20260509060705 | 26 | 180 | 6.4 | 16.1 | 0.00 | 0.00 | 0.00 | 26 | 1013.8 |
| 20260509060605 | 26 | 180 | 4.8 | 16.1 | 0.00 | 0.00 | 0.00 | 25 | 1013.7 |
| 20260509060505 | 26 | 180 | 8.0 | 16.1 | 0.00 | 0.00 | 0.00 | 25 | 1013.8 |
| 20260509060405 | 26 | 0 | 6.4 | 16.1 | 0.00 | 0.00 | 0.00 | 25 | 1013.8 |
| 20260509060305 | 26 | 180 | 6.4 | 16.1 | 0.00 | 0.00 | 0.00 | 26 | 1013.7 |
| 20260509060205 | 26 | 180 | 6.4 | 16.1 | 0.00 | 0.00 | 0.00 | 26 | 1013.8 |
| 20260509060105 | 26 | 90 | 6.4 | 16.1 | 0.00 | 0.00 | 0.00 | 26 | 1013.9 |
| 20260509060005 | 26 | 180 | 9.7 | 16.1 | 0.00 | 0.00 | 0.00 | 25 | 1013.8 |
| 20260509055905 | 26 | 90 | 9.7 | 16.1 | 0.00 | 0.00 | 0.00 | 25 | 1013.7 |
| 20260509055805 | 26 | 180 | 6.4 | 12.9 | 0.00 | 0.00 | 0.00 | 25 | 1013.7 |
| 20260509055705 | 26 | 180 | 6.4 | 12.9 | 0.00 | 0.00 | 0.00 | 24 | 1013.8 |
| 20260509055605 | 26 | 180 | 6.4 | 14.5 | 0.00 | 0.00 | 0.00 | 25 | 1013.7 |
| 20260509055505 | 26 | 180 | 6.4 | 14.5 | 0.00 | 0.00 | 0.00 | 24 | 1013.8 |
| 20260509055405 | 26 | 180 | 4.8 | 14.5 | 0.00 | 0.00 | 0.00 | 24 | 1013.9 |
| 20260509055306 | 27 | 90 | 6.4 | 14.5 | 0.00 | 0.00 | 0.00 | 24 | 1014.0 |
| 20260509055205 | 26 | 90 | 4.8 | 14.5 | 0.00 | 0.00 | 0.00 | 25 | 1014.0 |
| 20260509055105 | 26 | 180 | 4.8 | 14.5 | 0.00 | 0.00 | 0.00 | 25 | 1013.8 |
| 20260509055005 | 26 | 180 | 4.8 | 14.5 | 0.00 | 0.00 | 0.00 | 25 | 1014.0 |
| 20260509054905 | 26 | 225 | 4.8 | 14.5 | 0.00 | 0.00 | 0.00 | 25 | 1013.9 |
| 20260509054805 | 26 | 0 | 6.4 | 14.5 | 0.00 | 0.00 | 0.00 | 25 | 1014.0 |
| 20260509054705 | 26 | 180 | 6.4 | 14.5 | 0.00 | 0.00 | 0.00 | 25 | 1014.2 |
| 20260509054605 | 26 | 180 | 6.4 | 14.5 | 0.00 | 0.00 | 0.00 | 26 | 1014.1 |
| 20260509054505 | 26 | 0 | 4.8 | 14.5 | 0.00 | 0.00 | 0.00 | 27 | 1013.9 |
| 20260509054405 | 26 | 180 | 4.8 | 14.5 | 0.00 | 0.00 | 0.00 | 27 | 1014.1 |
| 20260509054305 | 26 | 180 | 4.8 | 14.5 | 0.00 | 0.00 | 0.00 | 26 | 1014.0 |
| 20260509054205 | 26 | 0 | 6.4 | 14.5 | 0.00 | 0.00 | 0.00 | 26 | 1014.0 |
| 20260509054105 | 26 | 180 | 8.0 | 14.5 | 0.00 | 0.00 | 0.00 | 26 | 1014.1 |
| 20260509054005 | 27 | 180 | 6.4 | 14.5 | 0.00 | 0.00 | 0.00 | 26 | 1014.0 |
| 20260509053905 | 27 | 180 | 4.8 | 14.5 | 0.00 | 0.00 | 0.00 | 26 | 1014.0 |
| 20260509053805 | 27 | 180 | 4.8 | 14.5 | 0.00 | 0.00 | 0.00 | 26 | 1014.2 |
| 20260509053705 | 27 | 180 | 4.8 | 14.5 | 0.00 | 0.00 | 0.00 | 27 | 1014.1 |
| 20260509053605 | 26 | 180 | 4.8 | 14.5 | 0.00 | 0.00 | 0.00 | 27 | 1014.2 |
| 20260509053505 | 27 | 180 | 6.4 | 14.5 | 0.00 | 0.00 | 0.00 | 27 | 1014.3 |
| 20260509053405 | 27 | 180 | 8.0 | 14.5 | 0.00 | 0.00 | 0.00 | 27 | 1014.3 |
| 20260509053305 | 27 | 180 | 8.0 | 14.5 | 0.00 | 0.00 | 0.00 | 27 | 1014.3 |
| 20260509053205 | 27 | 180 | 6.4 | 12.9 | 0.00 | 0.00 | 0.00 | 27 | 1014.3 |
| 20260509053105 | 27 | 0 | 4.8 | 12.9 | 0.00 | 0.00 | 0.00 | 26 | 1014.2 |
| 20260509053005 | 27 | 180 | 3.2 | 12.9 | 0.00 | 0.00 | 0.00 | 27 | 1014.3 |
| 20260509052905 | 26 | 0 | 3.2 | 12.9 | 0.00 | 0.00 | 0.00 | 27 | 1014.3 |
| 20260509052805 | 26 | 225 | 4.8 | 16.1 | 0.00 | 0.00 | 0.00 | 26 | 1014.2 |
| 20260509052705 | 26 | 180 | 4.8 | 16.1 | 0.00 | 0.00 | 0.00 | 26 | 1014.4 |
| 20260509052605 | 26 | 180 | 6.4 | 16.1 | 0.00 | 0.00 | 0.00 | 26 | 1014.3 |
| 20260509052505 | 26 | 0 | 6.4 | 16.1 | 0.00 | 0.00 | 0.00 | 26 | 1014.4 |
| 20260509052405 | 27 | 180 | 6.4 | 16.1 | 0.00 | 0.00 | 0.00 | 26 | 1014.3 |
| 20260509052307 | 27 | 180 | 4.8 | 16.1 | 0.00 | 0.00 | 0.00 | 26 | 1014.3 |
| 20260509052205 | 26 | 0 | 4.8 | 16.1 | 0.00 | 0.00 | 0.00 | 26 | 1014.5 |
| 20260509052105 | 27 | 90 | 4.8 | 16.1 | 0.00 | 0.00 | 0.00 | 25 | 1014.5 |
| 20260509052005 | 27 | 180 | 6.4 | 16.1 | 0.00 | 0.00 | 0.00 | 25 | 1014.5 |
| 20260509051905 | 27 | 180 | 9.7 | 16.1 | 0.00 | 0.00 | 0.00 | 24 | 1014.5 |
| 20260509051805 | 27 | 0 | 8.0 | 14.5 | 0.00 | 0.00 | 0.00 | 25 | 1014.6 |
| 20260509051705 | 27 | 180 | 6.4 | 12.9 | 0.00 | 0.00 | 0.00 | 26 | 1014.6 |
| 20260509051605 | 27 | 180 | 4.8 | 12.9 | 0.00 | 0.00 | 0.00 | 26 | 1014.5 |
| 20260509051505 | 27 | 225 | 1.6 | 12.9 | 0.00 | 0.00 | 0.00 | 27 | 1014.5 |
| 20260509051305 | 27 | 0 | 3.2 | 12.9 | 0.00 | 0.00 | 0.00 | 26 | 1014.5 |
| 20260509051205 | 27 | 180 | 3.2 | 14.5 | 0.00 | 0.00 | 0.00 | 26 | 1014.5 |
| 20260509051105 | 27 | 0 | 4.8 | 14.5 | 0.00 | 0.00 | 0.00 | 26 | 1014.4 |
| 20260509051005 | 27 | 90 | 6.4 | 14.5 | 0.00 | 0.00 | 0.00 | 25 | 1014.6 |
| 20260509050905 | 27 | 180 | 4.8 | 14.5 | 0.00 | 0.00 | 0.00 | 26 | 1014.6 |
| 20260509050805 | 27 | 180 | 4.8 | 14.5 | 0.00 | 0.00 | 0.00 | 25 | 1014.7 |
| 20260509050705 | 27 | 180 | 6.4 | 14.5 | 0.00 | 0.00 | 0.00 | 25 | 1014.6 |
| 20260509050605 | 27 | 90 | 4.8 | 14.5 | 0.00 | 0.00 | 0.00 | 26 | 1014.8 |
| 20260509050505 | 27 | 180 | 4.8 | 14.5 | 0.00 | 0.00 | 0.00 | 26 | 1014.7 |
| 20260509050405 | 27 | 180 | 4.8 | 14.5 | 0.00 | 0.00 | 0.00 | 26 | 1014.8 |
| 20260509050305 | 27 | 180 | 4.8 | 14.5 | 0.00 | 0.00 | 0.00 | 26 | 1014.6 |
| 20260509050205 | 26 | 180 | 6.4 | 14.5 | 0.00 | 0.00 | 0.00 | 26 | 1014.7 |
| 20260509050105 | 26 | 180 | 6.4 | 14.5 | 0.00 | 0.00 | 0.00 | 26 | 1014.8 |
| 20260509050005 | 26 | 0 | 4.8 | 14.5 | 0.00 | 0.00 | 0.00 | 26 | 1014.8 |
| 20260509045905 | 26 | 180 | 4.8 | 14.5 | 0.00 | 0.00 | 0.00 | 26 | 1014.8 |
| 20260509045805 | 26 | 180 | 4.8 | 14.5 | 0.00 | 0.00 | 0.00 | 25 | 1014.7 |
| 20260509045705 | 26 | 0 | 4.8 | 14.5 | 0.00 | 0.00 | 0.00 | 25 | 1014.8 |
| 20260509045605 | 27 | 180 | 4.8 | 14.5 | 0.00 | 0.00 | 0.00 | 25 | 1014.7 |
| 20260509045505 | 26 | 225 | 6.4 | 14.5 | 0.00 | 0.00 | 0.00 | 25 | 1014.8 |
| 20260509045405 | 26 | 180 | 6.4 | 14.5 | 0.00 | 0.00 | 0.00 | 25 | 1014.8 |
| 20260509045306 | 26 | 180 | 4.8 | 14.5 | 0.00 | 0.00 | 0.00 | 26 | 1015.1 |
| 20260509045205 | 26 | 180 | 4.8 | 14.5 | 0.00 | 0.00 | 0.00 | 26 | 1014.9 |
| 20260509045105 | 26 | 180 | 6.4 | 14.5 | 0.00 | 0.00 | 0.00 | 26 | 1014.9 |
| 20260509045005 | 26 | 180 | 4.8 | 14.5 | 0.00 | 0.00 | 0.00 | 26 | 1014.9 |
| 20260509044905 | 26 | 0 | 4.8 | 14.5 | 0.00 | 0.00 | 0.00 | 26 | 1014.9 |
| 20260509044805 | 26 | 225 | 4.8 | 14.5 | 0.00 | 0.00 | 0.00 | 26 | 1014.9 |
| 20260509044705 | 26 | 180 | 6.4 | 14.5 | 0.00 | 0.00 | 0.00 | 26 | 1014.9 |
| 20260509044605 | 26 | 90 | 8.0 | 14.5 | 0.00 | 0.00 | 0.00 | 26 | 1014.9 |
| 20260509044505 | 26 | 180 | 9.7 | 14.5 | 0.00 | 0.00 | 0.00 | 26 | 1014.8 |
| 20260509044405 | 26 | 180 | 8.0 | 12.9 | 0.00 | 0.00 | 0.00 | 26 | 1014.9 |
| 20260509044305 | 26 | 180 | 8.0 | 12.9 | 0.00 | 0.00 | 0.00 | 27 | 1015.0 |
| 20260509044205 | 26 | 180 | 6.4 | 11.3 | 0.00 | 0.00 | 0.00 | 27 | 1015.0 |
| 20260509044105 | 26 | 180 | 4.8 | 11.3 | 0.00 | 0.00 | 0.00 | 28 | 1014.9 |
| 20260509044005 | 26 | 0 | 4.8 | 11.3 | 0.00 | 0.00 | 0.00 | 28 | 1014.9 |
| 20260509043905 | 26 | 225 | 3.2 | 12.9 | 0.00 | 0.00 | 0.00 | 28 | 1014.9 |
| 20260509043805 | 25 | 0 | 3.2 | 12.9 | 0.00 | 0.00 | 0.00 | 28 | 1015.1 |
| 20260509043705 | 25 | 180 | 4.8 | 12.9 | 0.00 | 0.00 | 0.00 | 28 | 1015.1 |
| 20260509043605 | 25 | 225 | 6.4 | 12.9 | 0.00 | 0.00 | 0.00 | 28 | 1015.2 |
| 20260509043505 | 25 | 180 | 6.4 | 12.9 | 0.00 | 0.00 | 0.00 | 29 | 1015.2 |
| 20260509043405 | 25 | 180 | 4.8 | 14.5 | 0.00 | 0.00 | 0.00 | 28 | 1015.0 |
| 20260509043304 | 25 | 180 | 6.4 | 14.5 | 0.00 | 0.00 | 0.00 | 28 | 1015.2 |
| 20260509043205 | 25 | 225 | 8.0 | 14.5 | 0.00 | 0.00 | 0.00 | 28 | 1015.2 |
| 20260509043105 | 25 | 225 | 6.4 | 14.5 | 0.00 | 0.00 | 0.00 | 28 | 1015.2 |
| 20260509043005 | 25 | 0 | 4.8 | 14.5 | 0.00 | 0.00 | 0.00 | 28 | 1015.2 |
| 20260509042905 | 25 | 0 | 4.8 | 14.5 | 0.00 | 0.00 | 0.00 | 28 | 1015.2 |
| 20260509042805 | 25 | 90 | 4.8 | 14.5 | 0.00 | 0.00 | 0.00 | 28 | 1015.1 |
| 20260509042705 | 25 | 180 | 4.8 | 14.5 | 0.00 | 0.00 | 0.00 | 28 | 1015.1 |
| 20260509042605 | 25 | 0 | 6.4 | 14.5 | 0.00 | 0.00 | 0.00 | 28 | 1015.4 |
| 20260509042505 | 25 | 180 | 8.0 | 14.5 | 0.00 | 0.00 | 0.00 | 27 | 1015.3 |
| 20260509042405 | 25 | 180 | 8.0 | 14.5 | 0.00 | 0.00 | 0.00 | 27 | 1015.3 |
| 20260509042307 | 25 | 180 | 8.0 | 14.5 | 0.00 | 0.00 | 0.00 | 27 | 1015.2 |
| 20260509042205 | 25 | 180 | 6.4 | 14.5 | 0.00 | 0.00 | 0.00 | 27 | 1015.4 |
| 20260509042105 | 25 | 180 | 6.4 | 14.5 | 0.00 | 0.00 | 0.00 | 27 | 1015.3 |
| 20260509042005 | 25 | 225 | 6.4 | 14.5 | 0.00 | 0.00 | 0.00 | 27 | 1015.2 |
| 20260509041905 | 25 | 180 | 4.8 | 12.9 | 0.00 | 0.00 | 0.00 | 27 | 1015.2 |
| 20260509041804 | 25 | 180 | 4.8 | 12.9 | 0.00 | 0.00 | 0.00 | 27 | 1015.3 |
| 20260509041705 | 26 | 180 | 4.8 | 12.9 | 0.00 | 0.00 | 0.00 | 27 | 1015.4 |
| 20260509041605 | 26 | 180 | 4.8 | 14.5 | 0.00 | 0.00 | 0.00 | 27 | 1015.3 |
| 20260509041505 | 26 | 0 | 4.8 | 14.5 | 0.00 | 0.00 | 0.00 | 27 | 1015.5 |
| 20260509041405 | 26 | 180 | 4.8 | 14.5 | 0.00 | 0.00 | 0.00 | 27 | 1015.4 |
| 20260509041305 | 26 | 180 | 4.8 | 14.5 | 0.00 | 0.00 | 0.00 | 27 | 1015.3 |
| 20260509041205 | 26 | 180 | 4.8 | 14.5 | 0.00 | 0.00 | 0.00 | 27 | 1015.3 |
| 20260509041105 | 26 | 0 | 4.8 | 14.5 | 0.00 | 0.00 | 0.00 | 27 | 1015.5 |
| 20260509041005 | 26 | 0 | 8.0 | 14.5 | 0.00 | 0.00 | 0.00 | 27 | 1015.4 |
| 20260509040905 | 26 | 180 | 8.0 | 14.5 | 0.00 | 0.00 | 0.00 | 27 | 1015.6 |
| 20260509040805 | 26 | 180 | 6.4 | 14.5 | 0.00 | 0.00 | 0.00 | 27 | 1015.4 |
| 20260509040705 | 26 | 90 | 6.4 | 14.5 | 0.00 | 0.00 | 0.00 | 27 | 1015.4 |
| 20260509040604 | 25 | 90 | 6.4 | 17.7 | 0.00 | 0.00 | 0.00 | 27 | 1015.4 |
| 20260509040505 | 25 | 180 | 8.0 | 17.7 | 0.00 | 0.00 | 0.00 | 26 | 1015.4 |
| 20260509040405 | 26 | 90 | 8.0 | 17.7 | 0.00 | 0.00 | 0.00 | 27 | 1015.5 |
| 20260509040305 | 26 | 180 | 6.4 | 17.7 | 0.00 | 0.00 | 0.00 | 27 | 1015.6 |
| 20260509040204 | 26 | 180 | 6.4 | 17.7 | 0.00 | 0.00 | 0.00 | 27 | 1015.6 |
| 20260509040105 | 26 | 180 | 6.4 | 17.7 | 0.00 | 0.00 | 0.00 | 27 | 1015.6 |
| 20260509040005 | 26 | 0 | 8.0 | 17.7 | 0.00 | 0.00 | 0.00 | 26 | 1015.7 |
| 20260509035905 | 26 | 180 | 8.0 | 17.7 | 0.00 | 0.00 | 0.00 | 26 | 1015.6 |
| 20260509035804 | 26 | 180 | 8.0 | 17.7 | 0.00 | 0.00 | 0.00 | 26 | 1015.8 |
| 20260509035705 | 26 | 180 | 6.4 | 17.7 | 0.00 | 0.00 | 0.00 | 26 | 1015.6 |
| 20260509035605 | 26 | 0 | 4.8 | 11.3 | 0.00 | 0.00 | 0.00 | 26 | 1015.4 |
| 20260509035505 | 26 | 0 | 4.8 | 11.3 | 0.00 | 0.00 | 0.00 | 26 | 1015.7 |
| 20260509035404 | 26 | 180 | 4.8 | 12.9 | 0.00 | 0.00 | 0.00 | 26 | 1015.9 |
| 20260509035306 | 26 | 180 | 4.8 | 12.9 | 0.00 | 0.00 | 0.00 | 26 | 1015.8 |
| 20260509035205 | 26 | 0 | 4.8 | 14.5 | 0.00 | 0.00 | 0.00 | 26 | 1015.8 |
| 20260509035105 | 26 | 180 | 4.8 | 14.5 | 0.00 | 0.00 | 0.00 | 26 | 1015.8 |
| 20260509035004 | 26 | 0 | 4.8 | 14.5 | 0.00 | 0.00 | 0.00 | 26 | 1015.8 |
| 20260509034904 | 26 | 180 | 4.8 | 14.5 | 0.00 | 0.00 | 0.00 | 26 | 1015.8 |
| 20260509034805 | 26 | 225 | 4.8 | 14.5 | 0.00 | 0.00 | 0.00 | 26 | 1016.0 |
| 20260509034705 | 26 | 180 | 4.8 | 14.5 | 0.00 | 0.00 | 0.00 | 26 | 1015.9 |
| 20260509034504 | 26 | 180 | 6.4 | 14.5 | 0.00 | 0.00 | 0.00 | 25 | 1016.1 |
| 20260509034405 | 26 | 180 | 6.4 | 14.5 | 0.00 | 0.00 | 0.00 | 25 | 1016.0 |
| 20260509034305 | 26 | 90 | 6.4 | 14.5 | 0.00 | 0.00 | 0.00 | 26 | 1016.0 |
| 20260509034204 | 26 | 0 | 6.4 | 14.5 | 0.00 | 0.00 | 0.00 | 26 | 1016.1 |
| 20260509034104 | 26 | 180 | 6.4 | 14.5 | 0.00 | 0.00 | 0.00 | 25 | 1016.0 |
| 20260509034005 | 26 | 180 | 4.8 | 14.5 | 0.00 | 0.00 | 0.00 | 26 | 1016.1 |
| 20260509033905 | 26 | 180 | 4.8 | 14.5 | 0.00 | 0.00 | 0.00 | 25 | 1016.1 |
| 20260509033804 | 26 | 180 | 4.8 | 14.5 | 0.00 | 0.00 | 0.00 | 26 | 1016.0 |
| 20260509033704 | 26 | 180 | 4.8 | 14.5 | 0.00 | 0.00 | 0.00 | 26 | 1016.1 |
| 20260509033605 | 26 | 180 | 6.4 | 14.5 | 0.00 | 0.00 | 0.00 | 26 | 1016.2 |
| 20260509033505 | 26 | 180 | 4.8 | 14.5 | 0.00 | 0.00 | 0.00 | 26 | 1016.0 |
| 20260509033404 | 26 | 180 | 3.2 | 14.5 | 0.00 | 0.00 | 0.00 | 26 | 1016.1 |
| 20260509033204 | 26 | 180 | 6.4 | 14.5 | 0.00 | 0.00 | 0.00 | 26 | 1016.3 |
| 20260509033105 | 25 | 180 | 4.8 | 14.5 | 0.00 | 0.00 | 0.00 | 26 | 1016.1 |
| 20260509033004 | 25 | 5 | 14.5 | 0.0 | 0.00 | 0.00 | 0.00 | 26 | 1016.1 |
| 20260509032904 | 26 | 180 | 6.4 | 14.5 | 0.00 | 0.00 | 0.00 | 25 | 1016.3 |
| 20260509032804 | 26 | 180 | 4.8 | 14.5 | 0.00 | 0.00 | 0.00 | 26 | 1016.4 |
| 20260509032705 | 26 | 0 | 4.8 | 14.5 | 0.00 | 0.00 | 0.00 | 26 | 1016.3 |
| 20260509032605 | 26 | 180 | 4.8 | 14.5 | 0.00 | 0.00 | 0.00 | 26 | 1016.3 |
| 20260509032504 | 26 | 180 | 4.8 | 14.5 | 0.00 | 0.00 | 0.00 | 26 | 1016.4 |
| 20260509032404 | 26 | 180 | 4.8 | 14.5 | 0.00 | 0.00 | 0.00 | 27 | 1016.3 |
| 20260509032306 | 26 | 90 | 4.8 | 14.5 | 0.00 | 0.00 | 0.00 | 27 | 1016.3 |
| 20260509032205 | 25 | 180 | 6.4 | 14.5 | 0.00 | 0.00 | 0.00 | 27 | 1016.2 |
| 20260509032104 | 25 | 90 | 6.4 | 14.5 | 0.00 | 0.00 | 0.00 | 27 | 1016.3 |
| 20260509031904 | 25 | 180 | 6.4 | 14.5 | 0.00 | 0.00 | 0.00 | 27 | 1016.4 |
| 20260509031805 | 25 | 0 | 8.0 | 14.5 | 0.00 | 0.00 | 0.00 | 27 | 1016.4 |
| 20260509031704 | 25 | 0 | 8.0 | 14.5 | 0.00 | 0.00 | 0.00 | 26 | 1016.5 |
| 20260509031604 | 25 | 0 | 6.4 | 14.5 | 0.00 | 0.00 | 0.00 | 26 | 1016.4 |
| 20260509031504 | 26 | 0 | 4.8 | 12.9 | 0.00 | 0.00 | 0.00 | 26 | 1016.4 |
| 20260509031405 | 26 | 180 | 4.8 | 16.1 | 0.00 | 0.00 | 0.00 | 26 | 1016.5 |
| 20260509031304 | 26 | 180 | 8.0 | 16.1 | 0.00 | 0.00 | 0.00 | 26 | 1016.4 |
| 20260509031204 | 26 | 180 | 8.0 | 16.1 | 0.00 | 0.00 | 0.00 | 26 | 1016.3 |
| 20260509031104 | 26 | 0 | 6.4 | 16.1 | 0.00 | 0.00 | 0.00 | 26 | 1016.5 |
| 20260509031004 | 26 | 0 | 4.8 | 16.1 | 0.00 | 0.00 | 0.00 | 27 | 1016.4 |
| 20260509030904 | 26 | 0 | 4.8 | 16.1 | 0.00 | 0.00 | 0.00 | 28 | 1016.4 |
| 20260509030804 | 26 | 180 | 4.8 | 16.1 | 0.00 | 0.00 | 0.00 | 28 | 1016.5 |
| 20260509030704 | 26 | 180 | 3.2 | 16.1 | 0.00 | 0.00 | 0.00 | 27 | 1016.4 |
| 20260509030604 | 26 | 180 | 4.8 | 16.1 | 0.00 | 0.00 | 0.00 | 27 | 1016.4 |
| 20260509030504 | 26 | 0 | 4.8 | 16.1 | 0.00 | 0.00 | 0.00 | 27 | 1016.5 |
| 20260509030404 | 26 | 180 | 3.2 | 12.9 | 0.00 | 0.00 | 0.00 | 28 | 1016.6 |
| 20260509030304 | 25 | 0 | 3.2 | 14.5 | 0.00 | 0.00 | 0.00 | 28 | 1016.4 |
| 20260509030204 | 25 | 225 | 4.8 | 14.5 | 0.00 | 0.00 | 0.00 | 28 | 1016.6 |
| 20260509030105 | 25 | 0 | 3.2 | 14.5 | 0.00 | 0.00 | 0.00 | 28 | 1016.5 |
| 20260509030004 | 25 | 0 | 3.2 | 14.5 | 0.00 | 0.00 | 0.00 | 29 | 1016.6 |
| 20260509025904 | 25 | 225 | 4.8 | 14.5 | 0.00 | 0.00 | 0.00 | 29 | 1016.5 |
| 20260509025804 | 25 | 180 | 6.4 | 14.5 | 0.00 | 0.00 | 0.00 | 28 | 1016.7 |
| 20260509025704 | 25 | 0 | 6.4 | 14.5 | 0.00 | 0.00 | 0.00 | 28 | 1016.5 |
| 20260509025604 | 25 | 180 | 4.8 | 14.5 | 0.00 | 0.00 | 0.00 | 29 | 1016.6 |
| 20260509025504 | 25 | 0 | 6.4 | 17.7 | 0.00 | 0.00 | 0.00 | 28 | 1016.5 |
| 20260509025404 | 25 | 0 | 4.8 | 17.7 | 0.00 | 0.00 | 0.00 | 28 | 1016.7 |
| 20260509025306 | 25 | 0 | 4.8 | 17.7 | 0.00 | 0.00 | 0.00 | 28 | 1016.7 |
| 20260509025204 | 25 | 180 | 8.0 | 17.7 | 0.00 | 0.00 | 0.00 | 28 | 1016.6 |
| 20260509025104 | 25 | 180 | 6.4 | 17.7 | 0.00 | 0.00 | 0.00 | 29 | 1016.7 |
| 20260509025004 | 25 | 180 | 4.8 | 17.7 | 0.00 | 0.00 | 0.00 | 29 | 1016.8 |
| 20260509024904 | 25 | 180 | 4.8 | 17.7 | 0.00 | 0.00 | 0.00 | 29 | 1016.7 |
| 20260509024804 | 25 | 90 | 4.8 | 17.7 | 0.00 | 0.00 | 0.00 | 29 | 1016.7 |
| 20260509024704 | 25 | 90 | 4.8 | 17.7 | 0.00 | 0.00 | 0.00 | 29 | 1016.8 |
| 20260509024604 | 25 | 0 | 6.4 | 17.7 | 0.00 | 0.00 | 0.00 | 29 | 1016.6 |
| 20260509024404 | 25 | 180 | 4.8 | 14.5 | 0.00 | 0.00 | 0.00 | 30 | 1016.8 |
| 20260509024304 | 25 | 180 | 4.8 | 14.5 | 0.00 | 0.00 | 0.00 | 30 | 1016.8 |
| 20260509024204 | 25 | 180 | 4.8 | 14.5 | 0.00 | 0.00 | 0.00 | 31 | 1016.8 |
| 20260509024104 | 25 | 180 | 4.8 | 14.5 | 0.00 | 0.00 | 0.00 | 31 | 1016.8 |
| 20260509024004 | 25 | 180 | 4.8 | 14.5 | 0.00 | 0.00 | 0.00 | 30 | 1016.7 |
| 20260509023904 | 25 | 0 | 4.8 | 14.5 | 0.00 | 0.00 | 0.00 | 30 | 1016.9 |
| 20260509023804 | 25 | 225 | 4.8 | 14.5 | 0.00 | 0.00 | 0.00 | 31 | 1016.9 |
| 20260509023704 | 25 | 180 | 6.4 | 14.5 | 0.00 | 0.00 | 0.00 | 31 | 1016.8 |
| 20260509023604 | 26 | 180 | 6.4 | 14.5 | 0.00 | 0.00 | 0.00 | 30 | 1017.1 |
| 20260509023504 | 25 | 180 | 3.2 | 14.5 | 0.00 | 0.00 | 0.00 | 32 | 1016.7 |
| 20260509023404 | 25 | 180 | 0.0 | 12.9 | 0.00 | 0.00 | 0.00 | 32 | 1016.8 |
| 20260509023304 | 25 | 180 | 0.0 | 12.9 | 0.00 | 0.00 | 0.00 | 33 | 1016.7 |
| 20260509023204 | 25 | 180 | 3.2 | 12.9 | 0.00 | 0.00 | 0.00 | 32 | 1016.9 |
| 20260509023104 | 25 | 225 | 4.8 | 12.9 | 0.00 | 0.00 | 0.00 | 31 | 1016.8 |
| 20260509023004 | 25 | 0 | 4.8 | 12.9 | 0.00 | 0.00 | 0.00 | 32 | 1017.0 |
| 20260509022904 | 25 | 180 | 4.8 | 12.9 | 0.00 | 0.00 | 0.00 | 31 | 1017.0 |
| 20260509022804 | 25 | 180 | 4.8 | 11.3 | 0.00 | 0.00 | 0.00 | 31 | 1017.0 |
| 20260509022704 | 25 | 0 | 1.6 | 9.7 | 0.00 | 0.00 | 0.00 | 31 | 1017.0 |
| 20260509022604 | 25 | 225 | 4.8 | 9.7 | 0.00 | 0.00 | 0.00 | 31 | 1017.0 |
| 20260509022504 | 25 | 180 | 4.8 | 9.7 | 0.00 | 0.00 | 0.00 | 31 | 1017.0 |
| 20260509022404 | 25 | 180 | 4.8 | 11.3 | 0.00 | 0.00 | 0.00 | 31 | 1017.0 |
| 20260509022306 | 25 | 0 | 3.2 | 11.3 | 0.00 | 0.00 | 0.00 | 31 | 1017.1 |
| 20260509022204 | 25 | 0 | 3.2 | 12.9 | 0.00 | 0.00 | 0.00 | 31 | 1017.1 |
| 20260509022104 | 25 | 180 | 3.2 | 12.9 | 0.00 | 0.00 | 0.00 | 32 | 1017.0 |
| 20260509022004 | 25 | 0 | 1.6 | 12.9 | 0.00 | 0.00 | 0.00 | 32 | 1016.9 |
| 20260509021904 | 24 | 0 | 3.2 | 12.9 | 0.00 | 0.00 | 0.00 | 32 | 1017.1 |
| 20260509021804 | 24 | 0 | 4.8 | 12.9 | 0.00 | 0.00 | 0.00 | 32 | 1017.0 |
| 20260509021704 | 24 | 180 | 4.8 | 12.9 | 0.00 | 0.00 | 0.00 | 32 | 1017.2 |
| 20260509021604 | 24 | 180 | 4.8 | 12.9 | 0.00 | 0.00 | 0.00 | 32 | 1017.1 |
| 20260509021504 | 24 | 180 | 6.4 | 12.9 | 0.00 | 0.00 | 0.00 | 32 | 1017.0 |
| 20260509021405 | 24 | 180 | 6.4 | 12.9 | 0.00 | 0.00 | 0.00 | 32 | 1017.3 |
| 20260509021304 | 24 | 0 | 4.8 | 12.9 | 0.00 | 0.00 | 0.00 | 32 | 1017.2 |
| 20260509021204 | 25 | 90 | 4.8 | 11.3 | 0.00 | 0.00 | 0.00 | 33 | 1017.2 |
| 20260509021104 | 25 | 90 | 4.8 | 11.3 | 0.00 | 0.00 | 0.00 | 33 | 1017.2 |
| 20260509021004 | 25 | 180 | 4.8 | 11.3 | 0.00 | 0.00 | 0.00 | 34 | 1017.3 |
| 20260509020905 | 24 | 0 | 4.8 | 11.3 | 0.00 | 0.00 | 0.00 | 34 | 1017.3 |
| 20260509020804 | 24 | 180 | 3.2 | 11.3 | 0.00 | 0.00 | 0.00 | 34 | 1017.3 |
| 20260509020704 | 24 | 180 | 3.2 | 11.3 | 0.00 | 0.00 | 0.00 | 34 | 1017.1 |
| 20260509020604 | 24 | 180 | 4.8 | 11.3 | 0.00 | 0.00 | 0.00 | 33 | 1017.4 |
| 20260509020505 | 24 | 180 | 4.8 | 11.3 | 0.00 | 0.00 | 0.00 | 34 | 1017.3 |
| 20260509020404 | 24 | 180 | 6.4 | 14.5 | 0.00 | 0.00 | 0.00 | 33 | 1017.3 |
| 20260509020304 | 24 | 0 | 6.4 | 14.5 | 0.00 | 0.00 | 0.00 | 33 | 1017.3 |
| 20260509020204 | 24 | 180 | 4.8 | 14.5 | 0.00 | 0.00 | 0.00 | 33 | 1017.3 |
| 20260509020105 | 24 | 180 | 4.8 | 14.5 | 0.00 | 0.00 | 0.00 | 33 | 1017.3 |
| 20260509020005 | 25 | 0 | 4.8 | 14.5 | 0.00 | 0.00 | 0.00 | 33 | 1017.4 |
| 20260509015904 | 24 | 180 | 3.2 | 14.5 | 0.00 | 0.00 | 0.00 | 33 | 1017.3 |
| 20260509015804 | -17 | 174 | 8.0 | 0.0 | 0.00 | 0.00 | 0.00 | ||
| 20260509015704 | 24 | 180 | 4.8 | 14.5 | 0.00 | 0.00 | 0.00 | 33 | 1017.2 |
| 20260509015604 | 24 | 180 | 6.4 | 14.5 | 0.00 | 0.00 | 0.00 | 32 | 1017.3 |
| 20260509015504 | 24 | 180 | 6.4 | 14.5 | 0.00 | 0.00 | 0.00 | 33 | 1017.3 |
| 20260509015404 | 24 | 180 | 4.8 | 11.3 | 0.00 | 0.00 | 0.00 | 33 | 1017.3 |
| 20260509015306 | 24 | 180 | 4.8 | 11.3 | 0.00 | 0.00 | 0.00 | 33 | 1017.4 |
| 20260509015204 | 24 | 180 | 4.8 | 12.9 | 0.00 | 0.00 | 0.00 | 34 | 1017.3 |
| 20260509015104 | 24 | 180 | 4.8 | 12.9 | 0.00 | 0.00 | 0.00 | 33 | 1017.3 |
| 20260509015004 | 24 | 0 | 4.8 | 12.9 | 0.00 | 0.00 | 0.00 | 33 | 1017.3 |
| 20260509014904 | 24 | 180 | 4.8 | 12.9 | 0.00 | 0.00 | 0.00 | 33 | 1017.3 |
| 20260509014804 | 24 | 180 | 4.8 | 12.9 | 0.00 | 0.00 | 0.00 | 33 | 1017.3 |
| 20260509014704 | 24 | 180 | 4.8 | 12.9 | 0.00 | 0.00 | 0.00 | 33 | 1017.3 |
| 20260509014604 | 24 | 180 | 4.8 | 12.9 | 0.00 | 0.00 | 0.00 | 33 | 1017.4 |
| 20260509014504 | 24 | 180 | 6.4 | 12.9 | 0.00 | 0.00 | 0.00 | 32 | 1017.4 |
| 20260509014404 | 24 | 180 | 8.0 | 12.9 | 0.00 | 0.00 | 0.00 | 32 | 1017.3 |
| 20260509014304 | 24 | 180 | 4.8 | 12.9 | 0.00 | 0.00 | 0.00 | 32 | 1017.4 |
| 20260509014204 | 24 | 180 | 3.2 | 12.9 | 0.00 | 0.00 | 0.00 | 33 | 1017.3 |
| 20260509014104 | 24 | 0 | 4.8 | 12.9 | 0.00 | 0.00 | 0.00 | 33 | 1017.3 |
| 20260509014004 | 24 | 180 | 3.2 | 12.9 | 0.00 | 0.00 | 0.00 | 33 | 1017.3 |
| 20260509013904 | 23 | 180 | 3.2 | 12.9 | 0.00 | 0.00 | 0.00 | 33 | 1017.4 |
| 20260509013804 | 23 | 180 | 4.8 | 12.9 | 0.00 | 0.00 | 0.00 | 33 | 1017.4 |
| 20260509013704 | 23 | 180 | 4.8 | 12.9 | 0.00 | 0.00 | 0.00 | 33 | 1017.2 |
| 20260509013604 | 24 | 180 | 6.4 | 12.9 | 0.00 | 0.00 | 0.00 | 32 | 1017.3 |
| 20260509013504 | 24 | 0 | 6.4 | 12.9 | 0.00 | 0.00 | 0.00 | 32 | 1017.3 |
| 20260509013404 | 24 | 180 | 6.4 | 12.9 | 0.00 | 0.00 | 0.00 | 32 | 1017.4 |
| 20260509013304 | 24 | 180 | 4.8 | 12.9 | 0.00 | 0.00 | 0.00 | 33 | 1017.3 |
| 20260509013204 | 24 | 225 | 1.6 | 11.3 | 0.00 | 0.00 | 0.00 | 34 | 1017.3 |
| 20260509013104 | 23 | 90 | 3.2 | 11.3 | 0.00 | 0.00 | 0.00 | 34 | 1017.3 |
| 20260509013004 | 23 | 180 | 3.2 | 11.3 | 0.00 | 0.00 | 0.00 | 34 | 1017.2 |
| 20260509012904 | 23 | 180 | 4.8 | 12.9 | 0.00 | 0.00 | 0.00 | 33 | 1017.3 |
| 20260509012804 | 23 | 180 | 4.8 | 12.9 | 0.00 | 0.00 | 0.00 | 33 | 1017.3 |
| 20260509012704 | 23 | 180 | 4.8 | 12.9 | 0.00 | 0.00 | 0.00 | 33 | 1017.4 |
| 20260509012604 | 23 | 180 | 4.8 | 12.9 | 0.00 | 0.00 | 0.00 | 33 | 1017.4 |
| 20260509012504 | 23 | 180 | 4.8 | 12.9 | 0.00 | 0.00 | 0.00 | 33 | 1017.4 |
| 20260509012404 | 23 | 180 | 1.6 | 14.5 | 0.00 | 0.00 | 0.00 | 33 | 1017.5 |
| 20260509012307 | 23 | 45 | 1.6 | 17.7 | 0.00 | 0.00 | 0.00 | 34 | 1017.5 |
| 20260509012204 | 23 | 180 | 4.8 | 17.7 | 0.00 | 0.00 | 0.00 | 34 | 1017.3 |
| 20260509012104 | 23 | 180 | 4.8 | 17.7 | 0.00 | 0.00 | 0.00 | 33 | 1017.4 |
| 20260509012004 | 23 | 180 | 4.8 | 17.7 | 0.00 | 0.00 | 0.00 | 33 | 1017.4 |
| 20260509011904 | 23 | 0 | 4.8 | 17.7 | 0.00 | 0.00 | 0.00 | 33 | 1017.3 |
| 20260509011804 | 23 | 180 | 4.8 | 17.7 | 0.00 | 0.00 | 0.00 | 33 | 1017.4 |
| 20260509011704 | 23 | 90 | 4.8 | 17.7 | 0.00 | 0.00 | 0.00 | 33 | 1017.4 |
| 20260509011604 | 23 | 180 | 4.8 | 17.7 | 0.00 | 0.00 | 0.00 | 33 | 1017.5 |
| 20260509011504 | 23 | 90 | 8.0 | 17.7 | 0.00 | 0.00 | 0.00 | 33 | 1017.3 |
| 20260509011404 | 23 | 180 | 6.4 | 17.7 | 0.00 | 0.00 | 0.00 | 33 | 1017.5 |
| 20260509011304 | 23 | 180 | 6.4 | 12.9 | 0.00 | 0.00 | 0.00 | 33 | 1017.5 |
| 20260509011204 | 23 | 180 | 4.8 | 11.3 | 0.00 | 0.00 | 0.00 | 34 | 1017.3 |
| 20260509011104 | 23 | 180 | 4.8 | 9.7 | 0.00 | 0.00 | 0.00 | 34 | 1017.4 |
| 20260509011003 | -17 | 172 | 8.0 | 0.0 | 0.00 | 0.00 | 0.00 | ||
| 20260509010904 | 23 | 0 | 4.8 | 9.7 | 0.00 | 0.00 | 0.00 | 34 | 1017.4 |
| 20260509010804 | 23 | 180 | 4.8 | 9.7 | 0.00 | 0.00 | 0.00 | 34 | 1017.5 |
| 20260509010704 | 23 | 180 | 4.8 | 9.7 | 0.00 | 0.00 | 0.00 | 35 | 1017.3 |
| 20260509010604 | 23 | 0 | 4.8 | 9.7 | 0.00 | 0.00 | 0.00 | 35 | 1017.3 |
| 20260509010504 | 23 | 90 | 3.2 | 9.7 | 0.00 | 0.00 | 0.00 | 36 | 1017.2 |
| 20260509010404 | 23 | 225 | 3.2 | 9.7 | 0.00 | 0.00 | 0.00 | 36 | 1017.4 |
| 20260509010304 | 23 | 0 | 3.2 | 11.3 | 0.00 | 0.00 | 0.00 | 37 | 1017.4 |
| 20260509010204 | 23 | 0 | 3.2 | 11.3 | 0.00 | 0.00 | 0.00 | 36 | 1017.5 |
| 20260509010104 | 23 | 180 | 3.2 | 11.3 | 0.00 | 0.00 | 0.00 | 36 | 1017.3 |
| 20260509010004 | 22 | 0 | 3.2 | 11.3 | 0.00 | 0.00 | 0.00 | 37 | 1017.3 |
| 20260509005904 | 22 | 180 | 3.2 | 11.3 | 0.00 | 0.00 | 0.00 | 37 | 1017.4 |
| 20260509005804 | 22 | 180 | 3.2 | 11.3 | 0.00 | 0.00 | 0.00 | 38 | 1017.4 |
| 20260509005704 | 22 | 180 | 4.8 | 11.3 | 0.00 | 0.00 | 0.00 | 38 | 1017.4 |
| 20260509005603 | -17 | 173 | 11.3 | 0.0 | 0.00 | 0.00 | 0.00 | ||
| 20260509005504 | 22 | 180 | 4.8 | 11.3 | 0.00 | 0.00 | 0.00 | 38 | 1017.3 |
| 20260509005404 | 22 | 180 | 4.8 | 11.3 | 0.00 | 0.00 | 0.00 | 39 | 1017.2 |
| 20260509005306 | 22 | 180 | 4.8 | 9.7 | 0.00 | 0.00 | 0.00 | 39 | 1017.2 |
| 20260509005204 | 22 | 180 | 3.2 | 9.7 | 0.00 | 0.00 | 0.00 | 39 | 1017.2 |
| 20260509005104 | 22 | 180 | 4.8 | 9.7 | 0.00 | 0.00 | 0.00 | 40 | 1017.2 |
| 20260509005004 | 22 | 180 | 4.8 | 9.7 | 0.00 | 0.00 | 0.00 | 39 | 1017.2 |
| 20260509004904 | 22 | 90 | 4.8 | 9.7 | 0.00 | 0.00 | 0.00 | 40 | 1017.2 |
| 20260509004804 | 22 | 90 | 4.8 | 9.7 | 0.00 | 0.00 | 0.00 | 41 | 1017.2 |
| 20260509004704 | 22 | 0 | 4.8 | 9.7 | 0.00 | 0.00 | 0.00 | 41 | 1017.2 |
| 20260509004604 | 22 | 0 | 4.8 | 9.7 | 0.00 | 0.00 | 0.00 | 42 | 1017.1 |
| 20260509004504 | 21 | 180 | 3.2 | 9.7 | 0.00 | 0.00 | 0.00 | 42 | 1017.2 |
| 20260509004404 | 22 | 180 | 3.2 | 9.7 | 0.00 | 0.00 | 0.00 | 41 | 1017.1 |
| 20260509004304 | 22 | 0 | 4.8 | 9.7 | 0.00 | 0.00 | 0.00 | 41 | 1017.2 |
| 20260509004103 | 22 | 0 | 4.8 | 8.0 | 0.00 | 0.00 | 0.00 | 41 | 1017.3 |
| 20260509004004 | 22 | 0 | 3.2 | 8.0 | 0.00 | 0.00 | 0.00 | 43 | 1017.2 |
| 20260509003904 | 22 | 0 | 3.2 | 8.0 | 0.00 | 0.00 | 0.00 | 42 | 1017.1 |
| 20260509003804 | 22 | 90 | 3.2 | 8.0 | 0.00 | 0.00 | 0.00 | 43 | 1017.2 |
| 20260509003703 | 22 | 180 | 3.2 | 8.0 | 0.00 | 0.00 | 0.00 | 43 | 1017.3 |
| 20260509003603 | 22 | 225 | 1.6 | 8.0 | 0.00 | 0.00 | 0.00 | 44 | 1017.1 |
| 20260509003504 | 22 | 180 | 1.6 | 8.0 | 0.00 | 0.00 | 0.00 | 45 | 1017.3 |
| 20260509003404 | 21 | 180 | 1.6 | 9.7 | 0.00 | 0.00 | 0.00 | 45 | 1017.2 |
| 20260509003304 | 21 | 90 | 1.6 | 9.7 | 0.00 | 0.00 | 0.00 | 45 | 1017.2 |
| 20260509003203 | 21 | 180 | 3.2 | 9.7 | 0.00 | 0.00 | 0.00 | 45 | 1017.1 |
| 20260509003104 | 21 | 0 | 4.8 | 9.7 | 0.00 | 0.00 | 0.00 | 44 | 1017.2 |
| 20260509003004 | 21 | 0 | 3.2 | 9.7 | 0.00 | 0.00 | 0.00 | 44 | 1017.1 |
| 20260509002904 | 21 | 225 | 1.6 | 9.7 | 0.00 | 0.00 | 0.00 | 45 | 1017.2 |
| 20260509002803 | 21 | 0 | 3.2 | 9.7 | 0.00 | 0.00 | 0.00 | 45 | 1017.2 |
| 20260509002704 | 21 | 180 | 3.2 | 9.7 | 0.00 | 0.00 | 0.00 | 45 | 1017.2 |
| 20260509002604 | 21 | 180 | 4.8 | 9.7 | 0.00 | 0.00 | 0.00 | 45 | 1017.1 |
| 20260509002504 | 21 | 0 | 4.8 | 9.7 | 0.00 | 0.00 | 0.00 | 46 | 1017.2 |
| 20260509002404 | 21 | 180 | 4.8 | 9.7 | 0.00 | 0.00 | 0.00 | 46 | 1017.2 |
| 20260509002306 | 21 | 180 | 1.6 | 8.0 | 0.00 | 0.00 | 0.00 | 46 | 1017.2 |
| 20260509002204 | 21 | 180 | 3.2 | 8.0 | 0.00 | 0.00 | 0.00 | 46 | 1017.1 |
| 20260509002104 | 21 | 90 | 1.6 | 8.0 | 0.00 | 0.00 | 0.00 | 47 | 1017.2 |
| 20260509002004 | 21 | 90 | 1.6 | 8.0 | 0.00 | 0.00 | 0.00 | 48 | 1017.3 |
| 20260509001903 | 21 | 180 | 3.2 | 8.0 | 0.00 | 0.00 | 0.00 | 48 | 1017.1 |
| 20260509001803 | 21 | 180 | 3.2 | 8.0 | 0.00 | 0.00 | 0.00 | 49 | 1017.2 |
| 20260509001704 | 21 | 180 | 3.2 | 8.0 | 0.00 | 0.00 | 0.00 | 49 | 1017.2 |
| 20260509001604 | 21 | 180 | 3.2 | 8.0 | 0.00 | 0.00 | 0.00 | 49 | 1017.2 |
| 20260509001503 | 21 | 180 | 3.2 | 8.0 | 0.00 | 0.00 | 0.00 | 49 | 1017.3 |
| 20260509001403 | 21 | 180 | 3.2 | 8.0 | 0.00 | 0.00 | 0.00 | 49 | 1017.3 |
| 20260509001304 | 21 | 180 | 3.2 | 8.0 | 0.00 | 0.00 | 0.00 | 49 | 1017.2 |
| 20260509001204 | 21 | 180 | 3.2 | 8.0 | 0.00 | 0.00 | 0.00 | 49 | 1017.0 |
| 20260509001103 | 20 | 0 | 3.2 | 9.7 | 0.00 | 0.00 | 0.00 | 49 | 1017.1 |
| 20260509001003 | 20 | 180 | 3.2 | 9.7 | 0.00 | 0.00 | 0.00 | 49 | 1017.1 |
| 20260509000904 | 20 | 0 | 3.2 | 9.7 | 0.00 | 0.00 | 0.00 | 49 | 1017.1 |
| 20260509000804 | 20 | 0 | 3.2 | 9.7 | 0.00 | 0.00 | 0.00 | 50 | 1017.1 |
| 20260509000704 | 20 | 180 | 4.8 | 9.7 | 0.00 | 0.00 | 0.00 | 50 | 1017.2 |
| 20260509000603 | 20 | 180 | 3.2 | 9.7 | 0.00 | 0.00 | 0.00 | 50 | 1017.0 |
| 20260509000503 | 20 | 180 | 3.2 | 9.7 | 0.00 | 0.00 | 0.00 | 50 | 1017.0 |
| 20260509000404 | 20 | 90 | 3.2 | 9.7 | 0.00 | 0.00 | 0.00 | 50 | 1017.0 |
| 20260509000303 | 20 | 3 | 9.7 | 0.0 | 0.00 | 0.00 | 0.00 | 50 | 1016.9 |
| 20260509000204 | 20 | 180 | 4.8 | 9.7 | 0.00 | 0.00 | 0.00 | 50 | 1017.0 |
| 20260509000103 | 20 | 0 | 4.8 | 9.7 | 0.00 | 0.00 | 0.00 | 50 | 1017.0 |
| 20260509000004 | 20 | 180 | 3.2 | 9.7 | 0.00 | 0.00 | 0.00 | 50 | 1016.9 |
| 20260508235903 | 20 | 0 | 1.6 | 9.7 | 0.00 | 0.00 | 0.00 | 51 | 1016.9 |
| 20260508235803 | 20 | 0 | 1.6 | 9.7 | 0.00 | 0.00 | 0.00 | 51 | 1016.9 |
| 20260508235703 | 20 | 180 | 3.2 | 9.7 | 0.00 | 0.00 | 0.00 | 51 | 1016.9 |
| 20260508235604 | 20 | 0 | 4.8 | 9.7 | 0.00 | 0.00 | 0.00 | 51 | 1017.1 |
| 20260508235504 | 20 | 0 | 4.8 | 9.7 | 0.00 | 0.00 | 0.00 | 51 | 1017.0 |
| 20260508235403 | 20 | 180 | 4.8 | 9.7 | 0.00 | 0.00 | 0.00 | 51 | 1017.0 |
| 20260508235306 | 20 | 180 | 4.8 | 9.7 | 0.00 | 0.00 | 0.00 | 51 | 1017.0 |
| 20260508235204 | 20 | 180 | 4.8 | 9.7 | 0.00 | 0.00 | 0.00 | 51 | 1017.1 |
| 20260508235104 | 20 | 0 | 3.2 | 9.7 | 0.00 | 0.00 | 0.00 | 51 | 1016.9 |
| 20260508235003 | 20 | 0 | 4.8 | 8.0 | 0.00 | 0.00 | 0.00 | 52 | 1017.0 |
| 20260508234903 | 20 | 180 | 3.2 | 8.0 | 0.00 | 0.00 | 0.00 | 52 | 1016.9 |
| 20260508234803 | 20 | 180 | 3.2 | 8.0 | 0.00 | 0.00 | 0.00 | 52 | 1017.0 |
| 20260508234704 | 20 | 180 | 3.2 | 8.0 | 0.00 | 0.00 | 0.00 | 52 | 1017.0 |
| 20260508234603 | 20 | 180 | 4.8 | 8.0 | 0.00 | 0.00 | 0.00 | 52 | 1017.0 |
| 20260508234503 | 20 | 0 | 3.2 | 8.0 | 0.00 | 0.00 | 0.00 | 52 | 1017.0 |
| 20260508234403 | 20 | 180 | 3.2 | 8.0 | 0.00 | 0.00 | 0.00 | 52 | 1016.9 |
| 20260508234304 | 20 | 0 | 3.2 | 8.0 | 0.00 | 0.00 | 0.00 | 53 | 1016.9 |
| 20260508234203 | 20 | 0 | 0.0 | 8.0 | 0.00 | 0.00 | 0.00 | 54 | 1016.9 |
| 20260508234103 | 19 | 180 | 0.0 | 8.0 | 0.00 | 0.00 | 0.00 | 54 | 1017.0 |
| 20260508234003 | 19 | 180 | 3.2 | 8.0 | 0.00 | 0.00 | 0.00 | 54 | 1016.8 |
| 20260508233904 | 19 | 180 | 4.8 | 8.0 | 0.00 | 0.00 | 0.00 | 54 | 1016.8 |
| 20260508233803 | 19 | 0 | 3.2 | 8.0 | 0.00 | 0.00 | 0.00 | 54 | 1016.9 |
| 20260508233703 | 19 | 180 | 3.2 | 8.0 | 0.00 | 0.00 | 0.00 | 55 | 1017.0 |
| 20260508233603 | 19 | 180 | 3.2 | 9.7 | 0.00 | 0.00 | 0.00 | 55 | 1016.9 |
| 20260508233503 | 19 | 0 | 3.2 | 9.7 | 0.00 | 0.00 | 0.00 | 55 | 1017.0 |
| 20260508233403 | 19 | 180 | 4.8 | 9.7 | 0.00 | 0.00 | 0.00 | 55 | 1017.1 |
| 20260508233303 | 19 | 180 | 4.8 | 9.7 | 0.00 | 0.00 | 0.00 | 55 | 1017.0 |
| 20260508233203 | 19 | 0 | 3.2 | 9.7 | 0.00 | 0.00 | 0.00 | 55 | 1017.1 |
| 20260508233103 | 19 | 180 | 4.8 | 9.7 | 0.00 | 0.00 | 0.00 | 55 | 1016.9 |
| 20260508233004 | 19 | 180 | 4.8 | 9.7 | 0.00 | 0.00 | 0.00 | 55 | 1016.9 |
| 20260508232903 | 19 | 0 | 3.2 | 9.7 | 0.00 | 0.00 | 0.00 | 55 | 1016.9 |
| 20260508232803 | 19 | 180 | 4.8 | 9.7 | 0.00 | 0.00 | 0.00 | 55 | 1016.9 |
| 20260508232703 | 19 | 180 | 4.8 | 9.7 | 0.00 | 0.00 | 0.00 | 55 | 1017.0 |
| 20260508232603 | 19 | 180 | 3.2 | 8.0 | 0.00 | 0.00 | 0.00 | 56 | 1016.9 |
| 20260508232504 | 19 | 180 | 3.2 | 8.0 | 0.00 | 0.00 | 0.00 | 56 | 1016.8 |
| 20260508232403 | 18 | 180 | 3.2 | 8.0 | 0.00 | 0.00 | 0.00 | 57 | 1016.9 |
| 20260508232306 | 19 | 180 | 3.2 | 8.0 | 0.00 | 0.00 | 0.00 | 57 | 1016.9 |
| 20260508232203 | 18 | 180 | 3.2 | 6.4 | 0.00 | 0.00 | 0.00 | 57 | 1016.9 |
| 20260508232103 | 18 | 180 | 1.6 | 6.4 | 0.00 | 0.00 | 0.00 | 58 | 1016.8 |
| 20260508232003 | 18 | 180 | 0.0 | 6.4 | 0.00 | 0.00 | 0.00 | 58 | 1016.8 |
| 20260508231903 | 18 | 180 | 1.6 | 6.4 | 0.00 | 0.00 | 0.00 | 58 | 1016.8 |
| 20260508231803 | 18 | 180 | 3.2 | 6.4 | 0.00 | 0.00 | 0.00 | 57 | 1016.8 |
| 20260508231703 | 18 | 180 | 4.8 | 6.4 | 0.00 | 0.00 | 0.00 | 57 | 1016.8 |
| 20260508231603 | 18 | 180 | 4.8 | 6.4 | 0.00 | 0.00 | 0.00 | 57 | 1016.8 |
| 20260508231503 | 18 | 180 | 3.2 | 6.4 | 0.00 | 0.00 | 0.00 | 58 | 1016.9 |
| 20260508231403 | 18 | 180 | 1.6 | 4.8 | 0.00 | 0.00 | 0.00 | 58 | 1016.7 |
| 20260508231303 | 18 | 180 | 0.0 | 4.8 | 0.00 | 0.00 | 0.00 | 58 | 1016.8 |
| 20260508231203 | 18 | 180 | 1.6 | 4.8 | 0.00 | 0.00 | 0.00 | 58 | 1016.8 |
| 20260508231103 | 18 | 0 | 1.6 | 4.8 | 0.00 | 0.00 | 0.00 | 58 | 1016.7 |
| 20260508231003 | 18 | 180 | 0.0 | 4.8 | 0.00 | 0.00 | 0.00 | 58 | 1016.8 |
| 20260508230903 | 18 | 0 | 0.0 | 4.8 | 0.00 | 0.00 | 0.00 | 59 | 1016.7 |
| 20260508230804 | 18 | 180 | 0.0 | 4.8 | 0.00 | 0.00 | 0.00 | 59 | 1016.7 |
| 20260508230704 | 18 | 0 | 0.0 | 4.8 | 0.00 | 0.00 | 0.00 | 59 | 1016.7 |
| 20260508230603 | 18 | 180 | 1.6 | 4.8 | 0.00 | 0.00 | 0.00 | 59 | 1016.6 |
| 20260508230503 | 18 | 0 | 1.6 | 4.8 | 0.00 | 0.00 | 0.00 | 59 | 1016.7 |
| 20260508230403 | 18 | 180 | 0.0 | 4.8 | 0.00 | 0.00 | 0.00 | 60 | 1016.8 |
| 20260508230304 | 18 | 0 | 0.0 | 4.8 | 0.00 | 0.00 | 0.00 | 59 | 1016.6 |
| 20260508230204 | 18 | 180 | 1.6 | 4.8 | 0.00 | 0.00 | 0.00 | 59 | 1016.6 |
| 20260508230103 | 18 | 0 | 1.6 | 4.8 | 0.00 | 0.00 | 0.00 | 59 | 1016.7 |
| 20260508230004 | 18 | 0 | 1.6 | 4.8 | 0.00 | 0.00 | 0.00 | 58 | 1016.5 |
| 20260508225904 | 18 | 0 | 1.6 | 4.8 | 0.00 | 0.00 | 0.00 | 58 | 1016.5 |
| 20260508225804 | 18 | 0 | 1.6 | 4.8 | 0.00 | 0.00 | 0.00 | 58 | 1016.7 |
| 20260508225703 | 18 | 225 | 1.6 | 4.8 | 0.00 | 0.00 | 0.00 | 58 | 1016.7 |
| 20260508225603 | 18 | 180 | 1.6 | 4.8 | 0.00 | 0.00 | 0.00 | 58 | 1016.6 |
| 20260508225504 | 18 | 180 | 1.6 | 4.8 | 0.00 | 0.00 | 0.00 | 58 | 1016.8 |
| 20260508225404 | 18 | 180 | 1.6 | 4.8 | 0.00 | 0.00 | 0.00 | 58 | 1016.6 |
| 20260508225306 | 18 | 180 | 0.0 | 4.8 | 0.00 | 0.00 | 0.00 | 58 | 1016.8 |
| 20260508225203 | 18 | 0 | 0.0 | 3.2 | 0.00 | 0.00 | 0.00 | 58 | 1016.6 |
| 20260508225103 | 18 | 225 | 0.0 | 3.2 | 0.00 | 0.00 | 0.00 | 58 | 1016.7 |
| 20260508225004 | 18 | 180 | 0.0 | 3.2 | 0.00 | 0.00 | 0.00 | 58 | 1016.6 |
| 20260508224903 | 18 | 0 | 0.0 | 3.2 | 0.00 | 0.00 | 0.00 | 58 | 1016.7 |
| 20260508224803 | 18 | 180 | 0.0 | 4.8 | 0.00 | 0.00 | 0.00 | 58 | 1016.6 |
| 20260508224703 | 18 | 180 | 0.0 | 4.8 | 0.00 | 0.00 | 0.00 | 58 | 1016.7 |
| 20260508224603 | 18 | 90 | 0.0 | 4.8 | 0.00 | 0.00 | 0.00 | 58 | 1016.7 |
| 20260508224504 | 18 | 180 | 0.0 | 4.8 | 0.00 | 0.00 | 0.00 | 58 | 1016.6 |
| 20260508224403 | 18 | 180 | 0.0 | 4.8 | 0.00 | 0.00 | 0.00 | 59 | 1016.7 |
| 20260508224303 | 18 | 180 | 0.0 | 4.8 | 0.00 | 0.00 | 0.00 | 59 | 1016.5 |
| 20260508224203 | 18 | 180 | 0.0 | 4.8 | 0.00 | 0.00 | 0.00 | 59 | 1016.5 |
| 20260508224103 | 18 | 180 | 0.0 | 4.8 | 0.00 | 0.00 | 0.00 | 59 | 1016.6 |
| 20260508224003 | 18 | 180 | 0.0 | 4.8 | 0.00 | 0.00 | 0.00 | 58 | 1016.6 |
| 20260508223903 | 18 | 0 | 0.0 | 4.8 | 0.00 | 0.00 | 0.00 | 58 | 1016.5 |
| 20260508223803 | 18 | 0 | 0.0 | 3.2 | 0.00 | 0.00 | 0.00 | 58 | 1016.6 |
| 20260508223703 | 18 | 0 | 0.0 | 3.2 | 0.00 | 0.00 | 0.00 | 59 | 1016.6 |
| 20260508223603 | 18 | 180 | 1.6 | 3.2 | 0.00 | 0.00 | 0.00 | 58 | 1016.5 |
| 20260508223503 | 18 | 180 | 0.0 | 3.2 | 0.00 | 0.00 | 0.00 | 59 | 1016.6 |
| 20260508223403 | 18 | 180 | 0.0 | 1.6 | 0.00 | 0.00 | 0.00 | 59 | 1016.6 |
| 20260508223303 | 18 | 180 | 0.0 | 0.0 | 0.00 | 0.00 | 0.00 | 59 | 1016.5 |
| 20260508223203 | 18 | 0 | 0.0 | 0.0 | 0.00 | 0.00 | 0.00 | 59 | 1016.5 |
| 20260508223003 | 18 | 0 | 0.0 | 0.0 | 0.00 | 0.00 | 0.00 | 59 | 1016.5 |
| 20260508222903 | 18 | 180 | 0.0 | 0.0 | 0.00 | 0.00 | 0.00 | 59 | 1016.4 |
| 20260508222803 | 18 | 180 | 0.0 | 0.0 | 0.00 | 0.00 | 0.00 | 60 | 1016.5 |
| 20260508222703 | 18 | 180 | 0.0 | 0.0 | 0.00 | 0.00 | 0.00 | 60 | 1016.4 |
| 20260508222603 | 18 | 0 | 0.0 | 0.0 | 0.00 | 0.00 | 0.00 | 61 | 1016.6 |
| 20260508222503 | 17 | 0 | 0.0 | 0.0 | 0.00 | 0.00 | 0.00 | 61 | 1016.5 |
| 20260508222403 | 17 | 180 | 0.0 | 0.0 | 0.00 | 0.00 | 0.00 | 61 | 1016.6 |
| 20260508222306 | 17 | 0 | 0.0 | 0.0 | 0.00 | 0.00 | 0.00 | 62 | 1016.6 |
| 20260508222203 | 17 | 180 | 0.0 | 0.0 | 0.00 | 0.00 | 0.00 | 63 | 1016.5 |
| 20260508222103 | 17 | 180 | 0.0 | 0.0 | 0.00 | 0.00 | 0.00 | 63 | 1016.6 |
| 20260508222003 | 17 | 180 | 0.0 | 0.0 | 0.00 | 0.00 | 0.00 | 63 | 1016.5 |
| 20260508221903 | 17 | 180 | 0.0 | 0.0 | 0.00 | 0.00 | 0.00 | 63 | 1016.5 |
| 20260508221803 | 17 | 0 | 0.0 | 0.0 | 0.00 | 0.00 | 0.00 | 64 | 1016.4 |
| 20260508221703 | 17 | 180 | 0.0 | 0.0 | 0.00 | 0.00 | 0.00 | 64 | 1016.5 |
| 20260508221603 | 17 | 0 | 0.0 | 0.0 | 0.00 | 0.00 | 0.00 | 65 | 1016.5 |
| 20260508221503 | 17 | 180 | 0.0 | 0.0 | 0.00 | 0.00 | 0.00 | 66 | 1016.6 |
| 20260508221403 | 16 | 180 | 0.0 | 0.0 | 0.00 | 0.00 | 0.00 | 67 | 1016.4 |
| 20260508221303 | 16 | 180 | 0.0 | 0.0 | 0.00 | 0.00 | 0.00 | 67 | 1016.4 |
| 20260508221203 | 16 | 180 | 0.0 | 0.0 | 0.00 | 0.00 | 0.00 | 67 | 1016.4 |
| 20260508221103 | 16 | 180 | 0.0 | 0.0 | 0.00 | 0.00 | 0.00 | 68 | 1016.4 |
| 20260508221003 | 16 | 180 | 0.0 | 0.0 | 0.00 | 0.00 | 0.00 | 69 | 1016.4 |
| 20260508220903 | 16 | 180 | 0.0 | 0.0 | 0.00 | 0.00 | 0.00 | 70 | 1016.5 |
| 20260508220803 | 15 | 0 | 0.0 | 0.0 | 0.00 | 0.00 | 0.00 | 71 | 1016.4 |
| 20260508220703 | 15 | 180 | 0.0 | 0.0 | 0.00 | 0.00 | 0.00 | 72 | 1016.4 |
| 20260508220603 | 15 | 0 | 0.0 | 0.0 | 0.00 | 0.00 | 0.00 | 72 | 1016.4 |
| 20260508220503 | 15 | 0 | 0.0 | 0.0 | 0.00 | 0.00 | 0.00 | 73 | 1016.5 |
| 20260508220403 | 15 | 180 | 0.0 | 0.0 | 0.00 | 0.00 | 0.00 | 74 | 1016.2 |
| 20260508220303 | 14 | 180 | 0.0 | 0.0 | 0.00 | 0.00 | 0.00 | 74 | 1016.6 |
| 20260508220203 | 14 | 180 | 0.0 | 0.0 | 0.00 | 0.00 | 0.00 | 75 | 1016.8 |
| 20260508220003 | 13 | 180 | 0.0 | 0.0 | 0.00 | 0.00 | 0.00 | 75 | 1017.1 |
| 20260508215903 | 13 | 180 | 0.0 | 0.0 | 0.00 | 0.00 | 0.00 | 75 | 1016.9 |
| 20260508215803 | 13 | 180 | 0.0 | 0.0 | 0.00 | 0.00 | 0.00 | 74 | 1017.1 |
| 20260508215703 | 13 | 45 | 0.0 | 0.0 | 0.00 | 0.00 | 0.00 | 74 | 1016.8 |
| 20260508215603 | 13 | 0 | 0.0 | 0.0 | 0.00 | 0.00 | 0.00 | 74 | 1017.1 |
| 20260508215503 | 13 | 0 | 0.0 | 0.0 | 0.00 | 0.00 | 0.00 | 74 | 1017.0 |
| 20260508215403 | 13 | 0 | 0.0 | 0.0 | 0.00 | 0.00 | 0.00 | 74 | 1016.9 |
| 20260508215306 | 13 | 0 | 0.0 | 0.0 | 0.00 | 0.00 | 0.00 | 74 | 1017.0 |
| 20260508215203 | 13 | 0 | 0.0 | 0.0 | 0.00 | 0.00 | 0.00 | 74 | 1016.9 |
| 20260508215103 | 13 | 0 | 0.0 | 0.0 | 0.00 | 0.00 | 0.00 | 74 | 1017.0 |
| 20260508215003 | 13 | 0 | 0.0 | 0.0 | 0.00 | 0.00 | 0.00 | 74 | 1016.9 |
| 20260508214903 | 13 | 0 | 0.0 | 0.0 | 0.00 | 0.00 | 0.00 | 75 | 1017.1 |
| 20260508214803 | 13 | 0 | 0.0 | 0.0 | 0.00 | 0.00 | 0.00 | 75 | 1017.1 |
| 20260508214703 | 13 | 0 | 0.0 | 0.0 | 0.00 | 0.00 | 0.00 | 75 | 1016.9 |
| 20260508214603 | 13 | 45 | 0.0 | 0.0 | 0.00 | 0.00 | 0.00 | 75 | 1016.9 |
| 20260508214503 | 13 | 225 | 0.0 | 0.0 | 0.00 | 0.00 | 0.00 | 75 | 1016.8 |
| 20260508214403 | 13 | 0 | 0.0 | 0.0 | 0.00 | 0.00 | 0.00 | 75 | 1016.8 |
| 20260508214303 | 13 | 0 | 0.0 | 0.0 | 0.00 | 0.00 | 0.00 | 75 | 1016.8 |
| 20260508214203 | 13 | 0 | 0.0 | 0.0 | 0.00 | 0.00 | 0.00 | 75 | 1016.8 |
| 20260508214103 | 13 | 0 | 0.0 | 0.0 | 0.00 | 0.00 | 0.00 | 76 | 1017.0 |
| 20260508214003 | 13 | 0 | 0.0 | 0.0 | 0.00 | 0.00 | 0.00 | 76 | 1016.8 |
| 20260508213903 | 13 | 0 | 0.0 | 0.0 | 0.00 | 0.00 | 0.00 | 76 | 1016.8 |
| 20260508213803 | 13 | 0 | 0.0 | 0.0 | 0.00 | 0.00 | 0.00 | 76 | 1016.8 |
| 20260508213703 | 13 | 0 | 0.0 | 0.0 | 0.00 | 0.00 | 0.00 | 77 | 1016.9 |
| 20260508213603 | 13 | 0 | 0.0 | 0.0 | 0.00 | 0.00 | 0.00 | 77 | 1016.8 |
| 20260508213503 | 13 | 0 | 0.0 | 0.0 | 0.00 | 0.00 | 0.00 | 77 | 1016.8 |
| 20260508213403 | 12 | 0 | 0.0 | 0.0 | 0.00 | 0.00 | 0.00 | 77 | 1016.8 |
| 20260508213303 | 12 | 0 | 0.0 | 0.0 | 0.00 | 0.00 | 0.00 | 77 | 1016.7 |
| 20260508213203 | 12 | 0 | 0.0 | 0.0 | 0.00 | 0.00 | 0.00 | 77 | 1016.7 |
| 20260508213103 | 12 | 0 | 0.0 | 0.0 | 0.00 | 0.00 | 0.00 | 77 | 1016.9 |
| 20260508213003 | 12 | 0 | 0.0 | 0.0 | 0.00 | 0.00 | 0.00 | 76 | 1016.7 |
| 20260508212903 | 12 | 0 | 0.0 | 0.0 | 0.00 | 0.00 | 0.00 | 76 | 1016.6 |
| 20260508212803 | 12 | 0 | 0.0 | 0.0 | 0.00 | 0.00 | 0.00 | 76 | 1016.7 |
| 20260508212703 | 12 | 0 | 0.0 | 0.0 | 0.00 | 0.00 | 0.00 | 76 | 1016.8 |
| 20260508212603 | 12 | 0 | 0.0 | 0.0 | 0.00 | 0.00 | 0.00 | 76 | 1016.7 |
| 20260508212503 | 12 | 0 | 0.0 | 0.0 | 0.00 | 0.00 | 0.00 | 75 | 1016.7 |
| 20260508212403 | 12 | 0 | 0.0 | 0.0 | 0.00 | 0.00 | 0.00 | 75 | 1016.7 |
| 20260508212306 | 12 | 0 | 0.0 | 0.0 | 0.00 | 0.00 | 0.00 | 75 | 1016.8 |
| 20260508212203 | 12 | 0 | 0.0 | 0.0 | 0.00 | 0.00 | 0.00 | 75 | 1016.8 |
| 20260508212103 | 12 | 0 | 0.0 | 0.0 | 0.00 | 0.00 | 0.00 | 75 | 1016.7 |
| 20260508212003 | 12 | 0 | 0.0 | 0.0 | 0.00 | 0.00 | 0.00 | 75 | 1016.7 |
| 20260508211903 | 12 | 0 | 0.0 | 0.0 | 0.00 | 0.00 | 0.00 | 75 | 1016.8 |
| 20260508211802 | 12 | 0 | 0.0 | 0.0 | 0.00 | 0.00 | 0.00 | 75 | 1016.8 |
| 20260508211702 | 12 | 0 | 0.0 | 0.0 | 0.00 | 0.00 | 0.00 | 75 | 1016.8 |
| 20260508211603 | 12 | 0 | 0.0 | 0.0 | 0.00 | 0.00 | 0.00 | 75 | 1016.8 |
| 20260508211503 | 12 | 0 | 0.0 | 0.0 | 0.00 | 0.00 | 0.00 | 75 | 1016.8 |
| 20260508211403 | 12 | 0 | 0.0 | 0.0 | 0.00 | 0.00 | 0.00 | 75 | 1016.7 |
| 20260508211303 | 12 | 0 | 0.0 | 0.0 | 0.00 | 0.00 | 0.00 | 75 | 1016.7 |
| 20260508211203 | 12 | 0 | 0.0 | 0.0 | 0.00 | 0.00 | 0.00 | 74 | 1016.7 |
| 20260508211102 | 12 | 0 | 0.0 | 0.0 | 0.00 | 0.00 | 0.00 | 74 | 1016.7 |
| 20260508211003 | 12 | 0 | 0.0 | 0.0 | 0.00 | 0.00 | 0.00 | 74 | 1016.8 |
| 20260508210903 | 12 | 0 | 0.0 | 0.0 | 0.00 | 0.00 | 0.00 | 74 | 1016.7 |
| 20260508210803 | 13 | 0 | 0.0 | 0.0 | 0.00 | 0.00 | 0.00 | 74 | 1016.8 |
| 20260508210703 | 13 | 0 | 0.0 | 0.0 | 0.00 | 0.00 | 0.00 | 74 | 1016.9 |
| 20260508210603 | 13 | 0 | 0.0 | 0.0 | 0.00 | 0.00 | 0.00 | 74 | 1016.7 |
| 20260508210502 | 13 | 0 | 0.0 | 0.0 | 0.00 | 0.00 | 0.00 | 74 | 1016.6 |
| 20260508210402 | 13 | 0 | 0.0 | 0.0 | 0.00 | 0.00 | 0.00 | 74 | 1016.7 |
| 20260508210302 | 13 | 0 | 0.0 | 0.0 | 0.00 | 0.00 | 0.00 | 74 | 1016.7 |
| 20260508210202 | 13 | 0 | 0.0 | 0.0 | 0.00 | 0.00 | 0.00 | 75 | 1016.7 |
| 20260508210003 | 13 | 0 | 0.0 | 0.0 | 0.00 | 0.00 | 0.00 | 75 | 1016.8 |
| 20260508205903 | 13 | 0 | 0.0 | 0.0 | 0.00 | 0.00 | 0.00 | 75 | 1016.7 |
| 20260508205803 | 13 | 0 | 0.0 | 0.0 | 0.00 | 0.00 | 0.00 | 75 | 1016.7 |
| 20260508205703 | 12 | 0 | 0.0 | 0.0 | 0.00 | 0.00 | 0.00 | 75 | 1016.8 |
| 20260508205603 | 12 | 0 | 0.0 | 0.0 | 0.00 | 0.00 | 0.00 | 75 | 1016.7 |
| 20260508205503 | 12 | 0 | 0.0 | 0.0 | 0.00 | 0.00 | 0.00 | 75 | 1016.6 |
| 20260508205403 | 12 | 0 | 0.0 | 0.0 | 0.00 | 0.00 | 0.00 | 75 | 1016.6 |
| 20260508205306 | 12 | 0 | 0.0 | 0.0 | 0.00 | 0.00 | 0.00 | 74 | 1016.7 |
| 20260508205202 | 12 | 0 | 0.0 | 0.0 | 0.00 | 0.00 | 0.00 | 74 | 1016.7 |
| 20260508205102 | 13 | 0 | 0.0 | 0.0 | 0.00 | 0.00 | 0.00 | 74 | 1016.6 |
| 20260508205002 | 13 | 0 | 0.0 | 0.0 | 0.00 | 0.00 | 0.00 | 74 | 1016.7 |
| 20260508204902 | 13 | 0 | 0.0 | 0.0 | 0.00 | 0.00 | 0.00 | 74 | 1016.7 |
| 20260508204802 | 13 | 0 | 0.0 | 0.0 | 0.00 | 0.00 | 0.00 | 74 | 1016.8 |
| 20260508204703 | 13 | 0 | 0.0 | 0.0 | 0.00 | 0.00 | 0.00 | 74 | 1016.7 |
| 20260508204603 | 13 | 0 | 0.0 | 0.0 | 0.00 | 0.00 | 0.00 | 74 | 1016.8 |
| 20260508204503 | 13 | 0 | 0.0 | 0.0 | 0.00 | 0.00 | 0.00 | 74 | 1016.7 |
| 20260508204403 | 13 | 0 | 0.0 | 0.0 | 0.00 | 0.00 | 0.00 | 75 | 1016.7 |
| 20260508204303 | 13 | 0 | 0.0 | 0.0 | 0.00 | 0.00 | 0.00 | 75 | 1016.7 |
| 20260508204202 | 13 | 0 | 0.0 | 0.0 | 0.00 | 0.00 | 0.00 | 75 | 1016.8 |
| 20260508204102 | 13 | 0 | 0.0 | 0.0 | 0.00 | 0.00 | 0.00 | 75 | 1016.6 |
| 20260508204002 | 13 | 0 | 0.0 | 0.0 | 0.00 | 0.00 | 0.00 | 75 | 1016.7 |
| 20260508203902 | 13 | 0 | 0.0 | 0.0 | 0.00 | 0.00 | 0.00 | 74 | 1016.7 |
| 20260508203802 | 13 | 0 | 0.0 | 0.0 | 0.00 | 0.00 | 0.00 | 74 | 1016.6 |
| 20260508203703 | 13 | 0 | 0.0 | 0.0 | 0.00 | 0.00 | 0.00 | 74 | 1016.6 |
| 20260508203602 | 13 | 0 | 0.0 | 0.0 | 0.00 | 0.00 | 0.00 | 74 | 1016.6 |
| 20260508203502 | 13 | 0 | 0.0 | 0.0 | 0.00 | 0.00 | 0.00 | 74 | 1016.7 |
| 20260508203403 | 13 | 0 | 0.0 | 0.0 | 0.00 | 0.00 | 0.00 | 74 | 1016.8 |
| 20260508203303 | 13 | 0 | 0.0 | 0.0 | 0.00 | 0.00 | 0.00 | 74 | 1016.7 |
| 20260508203203 | 13 | 0 | 0.0 | 0.0 | 0.00 | 0.00 | 0.00 | 74 | 1016.6 |
| 20260508203103 | 13 | 0 | 0.0 | 0.0 | 0.00 | 0.00 | 0.00 | 74 | 1016.5 |
| 20260508203002 | 13 | 0 | 0.0 | 0.0 | 0.00 | 0.00 | 0.00 | 74 | 1016.7 |
| 20260508202902 | 13 | 0 | 0.0 | 0.0 | 0.00 | 0.00 | 0.00 | 74 | 1016.5 |
| 20260508202802 | 13 | 0 | 0.0 | 0.0 | 0.00 | 0.00 | 0.00 | 74 | 1016.7 |
| 20260508202702 | 13 | 0 | 0.0 | 0.0 | 0.00 | 0.00 | 0.00 | 73 | 1016.6 |
| 20260508202602 | 13 | 0 | 0.0 | 0.0 | 0.00 | 0.00 | 0.00 | 73 | 1016.5 |
| 20260508202502 | 13 | 0 | 0.0 | 0.0 | 0.00 | 0.00 | 0.00 | 73 | 1016.6 |
| 20260508202402 | 13 | 0 | 0.0 | 0.0 | 0.00 | 0.00 | 0.00 | 73 | 1016.7 |
| 20260508202306 | 13 | 0 | 0.0 | 0.0 | 0.00 | 0.00 | 0.00 | 73 | 1016.7 |
| 20260508202203 | 13 | 0 | 0.0 | 0.0 | 0.00 | 0.00 | 0.00 | 73 | 1016.7 |
| 20260508202103 | 13 | 0 | 0.0 | 0.0 | 0.00 | 0.00 | 0.00 | 73 | 1016.7 |
| 20260508202002 | 13 | 0 | 0.0 | 0.0 | 0.00 | 0.00 | 0.00 | 73 | 1016.8 |
| 20260508201902 | 13 | 0 | 0.0 | 0.0 | 0.00 | 0.00 | 0.00 | 73 | 1016.7 |
| 20260508201802 | 13 | 0 | 0.0 | 0.0 | 0.00 | 0.00 | 0.00 | 73 | 1016.7 |
| 20260508201702 | 13 | 0 | 0.0 | 0.0 | 0.00 | 0.00 | 0.00 | 73 | 1016.7 |
| 20260508201602 | 13 | 180 | 0.0 | 0.0 | 0.00 | 0.00 | 0.00 | 73 | 1016.8 |
| 20260508201502 | 13 | 180 | 0.0 | 0.0 | 0.00 | 0.00 | 0.00 | 73 | 1016.8 |
| 20260508201402 | 13 | 180 | 0.0 | 0.0 | 0.00 | 0.00 | 0.00 | 73 | 1016.7 |
| 20260508201302 | 13 | 180 | 0.0 | 0.0 | 0.00 | 0.00 | 0.00 | 73 | 1016.6 |
| 20260508201202 | 13 | 180 | 0.0 | 0.0 | 0.00 | 0.00 | 0.00 | 73 | 1016.8 |
| 20260508201102 | 13 | 180 | 0.0 | 0.0 | 0.00 | 0.00 | 0.00 | 73 | 1016.8 |
| 20260508201002 | 13 | 45 | 0.0 | 0.0 | 0.00 | 0.00 | 0.00 | 73 | 1016.8 |
| 20260508200903 | 13 | 225 | 0.0 | 0.0 | 0.00 | 0.00 | 0.00 | 73 | 1016.7 |
| 20260508200802 | 13 | 225 | 0.0 | 0.0 | 0.00 | 0.00 | 0.00 | 73 | 1016.7 |
| 20260508200702 | 13 | 225 | 0.0 | 0.0 | 0.00 | 0.00 | 0.00 | 73 | 1016.8 |
| 20260508200602 | 13 | 225 | 0.0 | 0.0 | 0.00 | 0.00 | 0.00 | 73 | 1016.7 |
| 20260508200502 | 13 | 225 | 0.0 | 0.0 | 0.00 | 0.00 | 0.00 | 73 | 1016.8 |
| 20260508200402 | 13 | 225 | 0.0 | 0.0 | 0.00 | 0.00 | 0.00 | 73 | 1016.8 |
| 20260508200302 | 13 | 0 | 0.0 | 0.0 | 0.00 | 0.00 | 0.00 | 73 | 1016.8 |
| 20260508200202 | 13 | 0 | 0.0 | 0.0 | 0.00 | 0.00 | 0.00 | 73 | 1016.7 |
| 20260508200002 | 13 | 0 | 0.0 | 0.0 | 0.00 | 0.00 | 0.00 | 73 | 1016.7 |
| 20260508195902 | 13 | 0 | 0.0 | 0.0 | 0.00 | 0.00 | 0.00 | 73 | 1016.8 |
| 20260508195803 | 13 | 0 | 0.0 | 0.0 | 0.00 | 0.00 | 0.00 | 72 | 1016.9 |
| 20260508195702 | 13 | 0 | 0.0 | 0.0 | 0.00 | 0.00 | 0.00 | 72 | 1016.8 |
| 20260508195602 | 13 | 0 | 0.0 | 0.0 | 0.00 | 0.00 | 0.00 | 72 | 1016.7 |
| 20260508195502 | 13 | 0 | 0.0 | 0.0 | 0.00 | 0.00 | 0.00 | 72 | 1017.0 |
| 20260508195402 | 13 | 0 | 0.0 | 0.0 | 0.00 | 0.00 | 0.00 | 72 | 1016.8 |
| 20260508195305 | 13 | 0 | 0.0 | 0.0 | 0.00 | 0.00 | 0.00 | 72 | 1016.9 |
| 20260508195202 | 13 | 0 | 0.0 | 0.0 | 0.00 | 0.00 | 0.00 | 72 | 1016.9 |
| 20260508195102 | 13 | 0 | 0.0 | 0.0 | 0.00 | 0.00 | 0.00 | 72 | 1016.9 |
| 20260508195002 | 13 | 0 | 0.0 | 0.0 | 0.00 | 0.00 | 0.00 | 72 | 1016.9 |
| 20260508194902 | 13 | 225 | 0.0 | 0.0 | 0.00 | 0.00 | 0.00 | 72 | 1016.8 |
| 20260508194802 | 13 | 225 | 0.0 | 0.0 | 0.00 | 0.00 | 0.00 | 72 | 1016.7 |
| 20260508194702 | 13 | 225 | 0.0 | 0.0 | 0.00 | 0.00 | 0.00 | 71 | 1016.9 |
| 20260508194602 | 13 | 225 | 0.0 | 0.0 | 0.00 | 0.00 | 0.00 | 71 | 1016.9 |
| 20260508194502 | 13 | 225 | 0.0 | 0.0 | 0.00 | 0.00 | 0.00 | 71 | 1016.8 |
| 20260508194402 | 13 | 225 | 0.0 | 0.0 | 0.00 | 0.00 | 0.00 | 71 | 1016.8 |
| 20260508194302 | 13 | 225 | 0.0 | 0.0 | 0.00 | 0.00 | 0.00 | 71 | 1016.8 |
| 20260508194202 | 13 | 225 | 0.0 | 0.0 | 0.00 | 0.00 | 0.00 | 71 | 1016.8 |
| 20260508194102 | 13 | 225 | 0.0 | 0.0 | 0.00 | 0.00 | 0.00 | 71 | 1016.9 |
| 20260508194002 | 13 | 225 | 0.0 | 0.0 | 0.00 | 0.00 | 0.00 | 71 | 1017.0 |
| 20260508193902 | 13 | 225 | 0.0 | 0.0 | 0.00 | 0.00 | 0.00 | 71 | 1016.8 |
| 20260508193802 | 13 | 225 | 0.0 | 0.0 | 0.00 | 0.00 | 0.00 | 71 | 1016.8 |
| 20260508193702 | 13 | 225 | 0.0 | 0.0 | 0.00 | 0.00 | 0.00 | 71 | 1016.9 |
| 20260508193602 | 13 | 225 | 0.0 | 0.0 | 0.00 | 0.00 | 0.00 | 71 | 1016.8 |
| 20260508193502 | 13 | 225 | 0.0 | 0.0 | 0.00 | 0.00 | 0.00 | 71 | 1016.9 |
| 20260508193402 | 14 | 225 | 0.0 | 0.0 | 0.00 | 0.00 | 0.00 | 71 | 1017.0 |
| 20260508193302 | 14 | 225 | 0.0 | 0.0 | 0.00 | 0.00 | 0.00 | 71 | 1017.0 |
| 20260508193202 | 14 | 225 | 0.0 | 0.0 | 0.00 | 0.00 | 0.00 | 71 | 1016.9 |
| 20260508193102 | 14 | 225 | 0.0 | 0.0 | 0.00 | 0.00 | 0.00 | 71 | 1017.0 |
| 20260508193002 | 14 | 225 | 0.0 | 0.0 | 0.00 | 0.00 | 0.00 | 71 | 1017.0 |
| 20260508192902 | 14 | 225 | 0.0 | 0.0 | 0.00 | 0.00 | 0.00 | 70 | 1016.9 |
| 20260508192802 | 14 | 225 | 0.0 | 0.0 | 0.00 | 0.00 | 0.00 | 70 | 1017.2 |
| 20260508192702 | 14 | 225 | 0.0 | 0.0 | 0.00 | 0.00 | 0.00 | 70 | 1016.9 |
| 20260508192502 | 14 | 225 | 0.0 | 0.0 | 0.00 | 0.00 | 0.00 | 70 | 1016.9 |
| 20260508192402 | 14 | 225 | 0.0 | 0.0 | 0.00 | 0.00 | 0.00 | 70 | 1016.9 |
| 20260508192305 | 14 | 225 | 0.0 | 0.0 | 0.00 | 0.00 | 0.00 | 70 | 1017.0 |
| 20260508192202 | 14 | 225 | 0.0 | 0.0 | 0.00 | 0.00 | 0.00 | 70 | 1017.0 |
| 20260508192102 | 14 | 225 | 0.0 | 0.0 | 0.00 | 0.00 | 0.00 | 70 | 1016.9 |
| 20260508192002 | 14 | 225 | 0.0 | 0.0 | 0.00 | 0.00 | 0.00 | 70 | 1017.0 |
| 20260508191902 | 14 | 225 | 0.0 | 0.0 | 0.00 | 0.00 | 0.00 | 70 | 1016.9 |
| 20260508191802 | 14 | 225 | 0.0 | 0.0 | 0.00 | 0.00 | 0.00 | 70 | 1016.9 |
| 20260508191702 | 14 | 225 | 0.0 | 0.0 | 0.00 | 0.00 | 0.00 | 70 | 1017.0 |
| 20260508191602 | 14 | 225 | 0.0 | 0.0 | 0.00 | 0.00 | 0.00 | 70 | 1017.0 |
| 20260508191502 | 14 | 225 | 0.0 | 0.0 | 0.00 | 0.00 | 0.00 | 70 | 1017.0 |
| 20260508191402 | 14 | 225 | 0.0 | 0.0 | 0.00 | 0.00 | 0.00 | 70 | 1017.0 |
| 20260508191302 | 14 | 225 | 0.0 | 0.0 | 0.00 | 0.00 | 0.00 | 70 | 1017.1 |
| 20260508191202 | 14 | 225 | 0.0 | 0.0 | 0.00 | 0.00 | 0.00 | 69 | 1017.0 |
| 20260508191102 | 14 | 225 | 0.0 | 0.0 | 0.00 | 0.00 | 0.00 | 69 | 1016.9 |
| 20260508191002 | 14 | 225 | 0.0 | 0.0 | 0.00 | 0.00 | 0.00 | 69 | 1017.1 |
| 20260508190902 | 14 | 0 | 0.0 | 0.0 | 0.00 | 0.00 | 0.00 | 69 | 1017.0 |
| 20260508190802 | 14 | 0 | 0.0 | 0.0 | 0.00 | 0.00 | 0.00 | 69 | 1016.9 |
| 20260508190702 | 14 | 0 | 0.0 | 0.0 | 0.00 | 0.00 | 0.00 | 69 | 1016.9 |
| 20260508190602 | 14 | 0 | 0.0 | 0.0 | 0.00 | 0.00 | 0.00 | 69 | 1017.0 |
| 20260508190502 | 14 | 0 | 0.0 | 0.0 | 0.00 | 0.00 | 0.00 | 69 | 1017.1 |
| 20260508190402 | 14 | 0 | 0.0 | 0.0 | 0.00 | 0.00 | 0.00 | 69 | 1017.0 |
| 20260508190302 | 14 | 0 | 0.0 | 0.0 | 0.00 | 0.00 | 0.00 | 69 | 1017.0 |
| 20260508190002 | 14 | 0 | 0.0 | 0.0 | 0.00 | 0.00 | 0.00 | 69 | 1017.0 |
| 20260508185902 | 14 | 0 | 0.0 | 0.0 | 0.00 | 0.00 | 0.00 | 69 | 1016.9 |
| 20260508185802 | 14 | 0 | 0.0 | 0.0 | 0.00 | 0.00 | 0.00 | 69 | 1017.1 |
| 20260508185702 | 14 | 0 | 0.0 | 0.0 | 0.00 | 0.00 | 0.00 | 69 | 1017.0 |
| 20260508185602 | 14 | 0 | 0.0 | 0.0 | 0.00 | 0.00 | 0.00 | 69 | 1016.9 |
| 20260508185502 | 14 | 225 | 0.0 | 0.0 | 0.00 | 0.00 | 0.00 | 69 | 1017.1 |
| 20260508185402 | 14 | 0 | 0.0 | 0.0 | 0.00 | 0.00 | 0.00 | 68 | 1017.1 |
| 20260508185305 | 14 | 0 | 0.0 | 0.0 | 0.00 | 0.00 | 0.00 | 68 | 1016.9 |
| 20260508185202 | 14 | 0 | 0.0 | 0.0 | 0.00 | 0.00 | 0.00 | 68 | 1017.1 |
| 20260508185102 | 14 | 0 | 0.0 | 0.0 | 0.00 | 0.00 | 0.00 | 68 | 1017.0 |
| 20260508185002 | 14 | 0 | 0.0 | 0.0 | 0.00 | 0.00 | 0.00 | 68 | 1017.1 |
| 20260508184902 | 14 | 0 | 0.0 | 0.0 | 0.00 | 0.00 | 0.00 | 68 | 1017.1 |
| 20260508184802 | 14 | 0 | 0.0 | 0.0 | 0.00 | 0.00 | 0.00 | 68 | 1017.1 |
| 20260508184702 | 14 | 0 | 0.0 | 0.0 | 0.00 | 0.00 | 0.00 | 67 | 1017.2 |
| 20260508184602 | 14 | 0 | 0.0 | 0.0 | 0.00 | 0.00 | 0.00 | 66 | 1017.0 |
| 20260508184502 | 14 | 0 | 0.0 | 0.0 | 0.00 | 0.00 | 0.00 | 66 | 1017.1 |
| 20260508184402 | 14 | 0 | 0.0 | 0.0 | 0.00 | 0.00 | 0.00 | 66 | 1017.2 |
| 20260508184302 | 14 | 0 | 0.0 | 0.0 | 0.00 | 0.00 | 0.00 | 66 | 1017.0 |
| 20260508184202 | 15 | 0 | 0.0 | 0.0 | 0.00 | 0.00 | 0.00 | 66 | 1017.1 |
| 20260508184102 | 15 | 0 | 0.0 | 0.0 | 0.00 | 0.00 | 0.00 | 66 | 1017.2 |
| 20260508184002 | 15 | 0 | 0.0 | 0.0 | 0.00 | 0.00 | 0.00 | 66 | 1017.3 |
| 20260508183902 | 15 | 0 | 0.0 | 0.0 | 0.00 | 0.00 | 0.00 | 66 | 1017.1 |
| 20260508183803 | 15 | 0 | 0.0 | 0.0 | 0.00 | 0.00 | 0.00 | 66 | 1017.0 |
| 20260508183702 | 15 | 0 | 0.0 | 0.0 | 0.00 | 0.00 | 0.00 | 66 | 1017.0 |
| 20260508183502 | 15 | 0 | 0.0 | 0.0 | 0.00 | 0.00 | 0.00 | 65 | 1017.1 |
| 20260508183402 | 15 | 0 | 0.0 | 0.0 | 0.00 | 0.00 | 0.00 | 65 | 1017.2 |
| 20260508183302 | 15 | 0 | 0.0 | 0.0 | 0.00 | 0.00 | 0.00 | 65 | 1017.1 |
| 20260508183202 | 15 | 0 | 0.0 | 0.0 | 0.00 | 0.00 | 0.00 | 65 | 1017.3 |
| 20260508183102 | 15 | 0 | 0.0 | 0.0 | 0.00 | 0.00 | 0.00 | 64 | 1017.1 |
| 20260508183002 | 15 | 0 | 0.0 | 0.0 | 0.00 | 0.00 | 0.00 | 64 | 1017.2 |
| 20260508182902 | 15 | 0 | 0.0 | 0.0 | 0.00 | 0.00 | 0.00 | 64 | 1017.3 |
| 20260508182802 | 15 | 0 | 0.0 | 0.0 | 0.00 | 0.00 | 0.00 | 64 | 1017.2 |
| 20260508182702 | 15 | 0 | 0.0 | 0.0 | 0.00 | 0.00 | 0.00 | 64 | 1017.2 |
| 20260508182602 | 15 | 0 | 0.0 | 0.0 | 0.00 | 0.00 | 0.00 | 64 | 1017.2 |
| 20260508182502 | 15 | 0 | 0.0 | 0.0 | 0.00 | 0.00 | 0.00 | 64 | 1017.3 |
| 20260508182402 | 15 | 180 | 0.0 | 0.0 | 0.00 | 0.00 | 0.00 | 65 | 1017.2 |
| 20260508182306 | 15 | 180 | 0.0 | 0.0 | 0.00 | 0.00 | 0.00 | 65 | 1017.2 |
| 20260508182202 | 15 | 0 | 0.0 | 0.0 | 0.00 | 0.00 | 0.00 | 65 | 1017.3 |
| 20260508182102 | 15 | 180 | 0.0 | 0.0 | 0.00 | 0.00 | 0.00 | 65 | 1017.1 |
| 20260508182002 | 15 | 180 | 0.0 | 0.0 | 0.00 | 0.00 | 0.00 | 65 | 1017.2 |
| 20260508181902 | 15 | 0 | 0.0 | 0.0 | 0.00 | 0.00 | 0.00 | 65 | 1017.3 |
| 20260508181802 | 15 | 0 | 0.0 | 0.0 | 0.00 | 0.00 | 0.00 | 65 | 1017.3 |
| 20260508181702 | 15 | 0 | 0.0 | 0.0 | 0.00 | 0.00 | 0.00 | 65 | 1017.3 |
| 20260508181602 | 15 | 180 | 0.0 | 0.0 | 0.00 | 0.00 | 0.00 | 66 | 1017.1 |
| 20260508181502 | 15 | 180 | 0.0 | 0.0 | 0.00 | 0.00 | 0.00 | 66 | 1017.1 |
| 20260508181402 | 15 | 45 | 0.0 | 0.0 | 0.00 | 0.00 | 0.00 | 66 | 1017.4 |
| 20260508181302 | 15 | 0 | 0.0 | 0.0 | 0.00 | 0.00 | 0.00 | 66 | 1017.4 |
| 20260508181202 | 15 | 45 | 0.0 | 0.0 | 0.00 | 0.00 | 0.00 | 67 | 1017.3 |
| 20260508181102 | 15 | 0 | 0.0 | 0.0 | 0.00 | 0.00 | 0.00 | 67 | 1017.4 |
| 20260508181002 | 15 | 0 | 0.0 | 0.0 | 0.00 | 0.00 | 0.00 | 67 | 1017.4 |
| 20260508180902 | 15 | 45 | 0.0 | 0.0 | 0.00 | 0.00 | 0.00 | 66 | 1017.3 |
| 20260508180802 | 15 | 45 | 0.0 | 0.0 | 0.00 | 0.00 | 0.00 | 66 | 1017.4 |
| 20260508180702 | 15 | 0 | 0.0 | 0.0 | 0.00 | 0.00 | 0.00 | 66 | 1017.3 |
| 20260508180602 | 15 | 0 | 0.0 | 0.0 | 0.00 | 0.00 | 0.00 | 66 | 1017.4 |
| 20260508180502 | 15 | 0 | 0.0 | 0.0 | 0.00 | 0.00 | 0.00 | 66 | 1017.4 |
| 20260508180402 | 15 | 0 | 0.0 | 0.0 | 0.00 | 0.00 | 0.00 | 66 | 1017.5 |
| 20260508180302 | 15 | 0 | 0.0 | 0.0 | 0.00 | 0.00 | 0.00 | 66 | 1017.4 |
| 20260508180202 | 15 | 0 | 0.0 | 0.0 | 0.00 | 0.00 | 0.00 | 65 | 1017.5 |
| 20260508180002 | 15 | 0 | 0.0 | 0.0 | 0.00 | 0.00 | 0.00 | 65 | 1017.4 |
| 20260508175902 | 15 | 0 | 0.0 | 0.0 | 0.00 | 0.00 | 0.00 | 65 | 1017.3 |
| 20260508175802 | 15 | 0 | 0.0 | 0.0 | 0.00 | 0.00 | 0.00 | 65 | 1017.4 |
| 20260508175702 | 15 | 0 | 0.0 | 0.0 | 0.00 | 0.00 | 0.00 | 64 | 1017.5 |
| 20260508175602 | 15 | 0 | 0.0 | 0.0 | 0.00 | 0.00 | 0.00 | 64 | 1017.4 |
| 20260508175502 | 15 | 0 | 0.0 | 0.0 | 0.00 | 0.00 | 0.00 | 64 | 1017.5 |
| 20260508175402 | 15 | 0 | 0.0 | 0.0 | 0.00 | 0.00 | 0.00 | 64 | 1017.5 |
| 20260508175305 | 15 | 0 | 0.0 | 0.0 | 0.00 | 0.00 | 0.00 | 64 | 1017.6 |
| 20260508175202 | 15 | 0 | 0.0 | 0.0 | 0.00 | 0.00 | 0.00 | 64 | 1017.3 |
| 20260508175102 | 15 | 0 | 0.0 | 0.0 | 0.00 | 0.00 | 0.00 | 64 | 1017.5 |
| 20260508175002 | 15 | 0 | 0.0 | 0.0 | 0.00 | 0.00 | 0.00 | 64 | 1017.6 |
| 20260508174902 | 15 | 0 | 0.0 | 0.0 | 0.00 | 0.00 | 0.00 | 63 | 1017.5 |
| 20260508174802 | 15 | 0 | 0.0 | 0.0 | 0.00 | 0.00 | 0.00 | 63 | 1017.5 |
| 20260508174702 | 15 | 0 | 0.0 | 0.0 | 0.00 | 0.00 | 0.00 | 63 | 1017.5 |
| 20260508174602 | 15 | 0 | 0.0 | 0.0 | 0.00 | 0.00 | 0.00 | 62 | 1017.5 |
| 20260508174502 | 15 | 0 | 0.0 | 0.0 | 0.00 | 0.00 | 0.00 | 62 | 1017.4 |
| 20260508174401 | -17 | 174 | 19.3 | 0.0 | 0.00 | 0.00 | 0.00 | ||
| 20260508174302 | 16 | 0 | 0.0 | 0.0 | 0.00 | 0.00 | 0.00 | 61 | 1017.5 |
| 20260508174202 | 16 | 0 | 0.0 | 0.0 | 0.00 | 0.00 | 0.00 | 61 | 1017.3 |
| 20260508174101 | 16 | 0 | 0.0 | 0.0 | 0.00 | 0.00 | 0.00 | 61 | 1017.4 |
| 20260508174002 | 16 | 0 | 0.0 | 0.0 | 0.00 | 0.00 | 0.00 | 61 | 1017.3 |
| 20260508173902 | 16 | 0 | 0.0 | 0.0 | 0.00 | 0.00 | 0.00 | 61 | 1017.3 |
| 20260508173802 | 16 | 0 | 0.0 | 0.0 | 0.00 | 0.00 | 0.00 | 60 | 1017.3 |
| 20260508173702 | 16 | 45 | 0.0 | 0.0 | 0.00 | 0.00 | 0.00 | 60 | 1017.3 |
| 20260508173602 | 16 | 45 | 0.0 | 0.0 | 0.00 | 0.00 | 0.00 | 60 | 1017.2 |
| 20260508173502 | 16 | 0 | 0.0 | 0.0 | 0.00 | 0.00 | 0.00 | 60 | 1017.4 |
| 20260508173402 | 16 | 45 | 0.0 | 0.0 | 0.00 | 0.00 | 0.00 | 60 | 1017.4 |
| 20260508173301 | 16 | 0 | 0.0 | 0.0 | 0.00 | 0.00 | 0.00 | 60 | 1017.2 |
| 20260508173201 | 16 | 45 | 0.0 | 0.0 | 0.00 | 0.00 | 0.00 | 60 | 1017.3 |
| 20260508173101 | 16 | 45 | 0.0 | 0.0 | 0.00 | 0.00 | 0.00 | 60 | 1017.3 |
| 20260508173001 | 16 | 45 | 0.0 | 0.0 | 0.00 | 0.00 | 0.00 | 60 | 1017.4 |
| 20260508172902 | 16 | 45 | 0.0 | 0.0 | 0.00 | 0.00 | 0.00 | 60 | 1017.4 |
| 20260508172802 | 16 | 0 | 0.0 | 0.0 | 0.00 | 0.00 | 0.00 | 60 | 1017.4 |
| 20260508172702 | 16 | 180 | 0.0 | 0.0 | 0.00 | 0.00 | 0.00 | 60 | 1017.4 |
| 20260508172602 | 16 | 0 | 0.0 | 0.0 | 0.00 | 0.00 | 0.00 | 60 | 1017.5 |
| 20260508172502 | 16 | 180 | 0.0 | 0.0 | 0.00 | 0.00 | 0.00 | 60 | 1017.4 |
| 20260508172402 | 16 | 0 | 0.0 | 0.0 | 0.00 | 0.00 | 0.00 | 60 | 1017.6 |
| 20260508172301 | 16 | 180 | 0.0 | 0.0 | 0.00 | 0.00 | 0.00 | 60 | 1017.4 |
| 20260508172201 | 16 | 180 | 0.0 | 0.0 | 0.00 | 0.00 | 0.00 | 60 | 1017.4 |
| 20260508172101 | 16 | 180 | 0.0 | 0.0 | 0.00 | 0.00 | 0.00 | 60 | 1017.3 |
| 20260508172001 | 16 | 0 | 0.0 | 0.0 | 0.00 | 0.00 | 0.00 | 60 | 1017.3 |
| 20260508171901 | 16 | 0 | 0.0 | 0.0 | 0.00 | 0.00 | 0.00 | 60 | 1017.4 |
| 20260508171802 | 16 | 180 | 0.0 | 0.0 | 0.00 | 0.00 | 0.00 | 60 | 1017.4 |
| 20260508171702 | 16 | 0 | 0.0 | 0.0 | 0.00 | 0.00 | 0.00 | 60 | 1017.4 |
| 20260508171602 | 16 | 180 | 0.0 | 0.0 | 0.00 | 0.00 | 0.00 | 60 | 1017.4 |
| 20260508171502 | 16 | 180 | 0.0 | 0.0 | 0.00 | 0.00 | 0.00 | 60 | 1017.4 |
| 20260508171402 | 16 | 180 | 0.0 | 0.0 | 0.00 | 0.00 | 0.00 | 60 | 1017.4 |
| 20260508171301 | 16 | 0 | 0.0 | 0.0 | 0.00 | 0.00 | 0.00 | 60 | 1017.4 |
| 20260508171201 | 16 | 180 | 0.0 | 0.0 | 0.00 | 0.00 | 0.00 | 60 | 1017.5 |
| 20260508171101 | 16 | 0 | 0.0 | 0.0 | 0.00 | 0.00 | 0.00 | 61 | 1017.5 |
| 20260508171001 | 16 | 0 | 0.0 | 0.0 | 0.00 | 0.00 | 0.00 | 61 | 1017.5 |
| 20260508170901 | 16 | 0 | 0.0 | 0.0 | 0.00 | 0.00 | 0.00 | 61 | 1017.3 |
| 20260508170801 | 16 | 0 | 0.0 | 0.0 | 0.00 | 0.00 | 0.00 | 61 | 1017.4 |
| 20260508170702 | 16 | 180 | 0.0 | 0.0 | 0.00 | 0.00 | 0.00 | 61 | 1017.4 |
| 20260508170602 | 16 | 0 | 0.0 | 0.0 | 0.00 | 0.00 | 0.00 | 61 | 1017.4 |
| 20260508170502 | 16 | 0 | 0.0 | 0.0 | 0.00 | 0.00 | 0.00 | 61 | 1017.4 |
| 20260508170401 | 16 | 0 | 0.0 | 0.0 | 0.00 | 0.00 | 0.00 | 61 | 1017.3 |
| 20260508170301 | 16 | 0 | 0.0 | 0.0 | 0.00 | 0.00 | 0.00 | 61 | 1017.3 |
| 20260508170201 | 16 | 0 | 0.0 | 0.0 | 0.00 | 0.00 | 0.00 | 61 | 1017.4 |
| 20260508170001 | 16 | 0 | 0.0 | 0.0 | 0.00 | 0.00 | 0.00 | 61 | 1017.4 |
| 20260508165901 | 16 | 0 | 0.0 | 0.0 | 0.00 | 0.00 | 0.00 | 61 | 1017.4 |
| 20260508165801 | 16 | 0 | 0.0 | 0.0 | 0.00 | 0.00 | 0.00 | 61 | 1017.4 |
| 20260508165701 | 16 | 0 | 0.0 | 0.0 | 0.00 | 0.00 | 0.00 | 61 | 1017.5 |
| 20260508165602 | 16 | 0 | 0.0 | 0.0 | 0.00 | 0.00 | 0.00 | 61 | 1017.4 |
| 20260508165502 | 16 | 0 | 0.0 | 0.0 | 0.00 | 0.00 | 0.00 | 61 | 1017.4 |
| 20260508165402 | 16 | 0 | 0.0 | 0.0 | 0.00 | 0.00 | 0.00 | 61 | 1017.3 |
| 20260508165302 | 16 | 0 | 0.0 | 0.0 | 0.00 | 0.00 | 0.00 | 62 | 1017.5 |
| 20260508165201 | 16 | 0 | 0.0 | 0.0 | 0.00 | 0.00 | 0.00 | 62 | 1017.4 |
| 20260508165101 | 16 | 0 | 0.0 | 0.0 | 0.00 | 0.00 | 0.00 | 62 | 1017.6 |
| 20260508165001 | 16 | 0 | 0.0 | 0.0 | 0.00 | 0.00 | 0.00 | 62 | 1017.4 |
| 20260508164901 | 16 | 180 | 0.0 | 0.0 | 0.00 | 0.00 | 0.00 | 62 | 1017.5 |
| 20260508164801 | 16 | 0 | 0.0 | 0.0 | 0.00 | 0.00 | 0.00 | 62 | 1017.4 |
| 20260508164702 | 16 | 0 | 0.0 | 0.0 | 0.00 | 0.00 | 0.00 | 63 | 1017.3 |
| 20260508164601 | 16 | 0 | 0.0 | 0.0 | 0.00 | 0.00 | 0.00 | 63 | 1017.4 |
| 20260508164501 | 16 | 0 | 0.0 | 0.0 | 0.00 | 0.00 | 0.00 | 63 | 1017.4 |
| 20260508164402 | 16 | 0 | 0.0 | 0.0 | 0.00 | 0.00 | 0.00 | 63 | 1017.4 |
| 20260508164302 | 16 | 0 | 0.0 | 0.0 | 0.00 | 0.00 | 0.00 | 63 | 1017.3 |
| 20260508164201 | 16 | 0 | 0.0 | 0.0 | 0.00 | 0.00 | 0.00 | 63 | 1017.5 |
| 20260508164101 | 16 | 0 | 0.0 | 0.0 | 0.00 | 0.00 | 0.00 | 63 | 1017.6 |
| 20260508164001 | 16 | 0 | 0.0 | 0.0 | 0.00 | 0.00 | 0.00 | 64 | 1017.4 |
| 20260508163901 | 16 | 0 | 0.0 | 0.0 | 0.00 | 0.00 | 0.00 | 64 | 1017.5 |
| 20260508163801 | 16 | 0 | 0.0 | 0.0 | 0.00 | 0.00 | 0.00 | 64 | 1017.4 |
| 20260508163701 | 16 | 0 | 0.0 | 0.0 | 0.00 | 0.00 | 0.00 | 64 | 1017.5 |
| 20260508163601 | 16 | 0 | 0.0 | 0.0 | 0.00 | 0.00 | 0.00 | 64 | 1017.6 |
| 20260508163501 | 16 | 0 | 0.0 | 0.0 | 0.00 | 0.00 | 0.00 | 64 | 1017.5 |
| 20260508163401 | 16 | 0 | 0.0 | 0.0 | 0.00 | 0.00 | 0.00 | 64 | 1017.5 |
| 20260508163301 | 16 | 0 | 0.0 | 0.0 | 0.00 | 0.00 | 0.00 | 63 | 1017.6 |
| 20260508163201 | 16 | 0 | 0.0 | 0.0 | 0.00 | 0.00 | 0.00 | 63 | 1017.5 |
| 20260508163101 | 16 | 0 | 0.0 | 0.0 | 0.00 | 0.00 | 0.00 | 63 | 1017.5 |
| 20260508163001 | 16 | 0 | 0.0 | 0.0 | 0.00 | 0.00 | 0.00 | 63 | 1017.6 |
| 20260508162901 | 16 | 0 | 0.0 | 0.0 | 0.00 | 0.00 | 0.00 | 64 | 1017.6 |
| 20260508162801 | 16 | 0 | 0.0 | 0.0 | 0.00 | 0.00 | 0.00 | 64 | 1017.6 |
| 20260508162701 | -17 | 175 | 19.3 | 0.0 | 0.00 | 0.00 | 0.00 | ||
| 20260508162601 | 16 | 0 | 0.0 | 0.0 | 0.00 | 0.00 | 0.00 | 64 | 1017.5 |
| 20260508162501 | 16 | 0 | 0.0 | 0.0 | 0.00 | 0.00 | 0.00 | 64 | 1017.7 |
| 20260508162401 | 16 | 0 | 0.0 | 0.0 | 0.00 | 0.00 | 0.00 | 63 | 1017.6 |
| 20260508162301 | 16 | 0 | 0.0 | 0.0 | 0.00 | 0.00 | 0.00 | 63 | 1017.6 |
| 20260508162201 | 16 | 0 | 0.0 | 0.0 | 0.00 | 0.00 | 0.00 | 63 | 1017.7 |
| 20260508162101 | 16 | 0 | 0.0 | 0.0 | 0.00 | 0.00 | 0.00 | 63 | 1017.7 |
| 20260508162001 | 16 | 0 | 0.0 | 0.0 | 0.00 | 0.00 | 0.00 | 63 | 1017.7 |
| 20260508161901 | 16 | 0 | 0.0 | 0.0 | 0.00 | 0.00 | 0.00 | 63 | 1017.6 |
| 20260508161801 | 16 | 0 | 0.0 | 0.0 | 0.00 | 0.00 | 0.00 | 63 | 1017.7 |
| 20260508161701 | 16 | 0 | 0.0 | 0.0 | 0.00 | 0.00 | 0.00 | 63 | 1017.7 |
| 20260508161601 | 16 | 0 | 0.0 | 0.0 | 0.00 | 0.00 | 0.00 | 63 | 1017.7 |
| 20260508161501 | 16 | 0 | 0.0 | 0.0 | 0.00 | 0.00 | 0.00 | 63 | 1017.5 |
| 20260508161401 | 16 | 0 | 0.0 | 0.0 | 0.00 | 0.00 | 0.00 | 63 | 1017.7 |
| 20260508161301 | 16 | 0 | 0.0 | 0.0 | 0.00 | 0.00 | 0.00 | 62 | 1017.8 |
| 20260508161201 | 16 | 0 | 0.0 | 0.0 | 0.00 | 0.00 | 0.00 | 62 | 1017.6 |
| 20260508161101 | 16 | 0 | 0.0 | 0.0 | 0.00 | 0.00 | 0.00 | 62 | 1017.8 |
| 20260508161001 | 16 | 0 | 0.0 | 0.0 | 0.00 | 0.00 | 0.00 | 62 | 1017.7 |
| 20260508160901 | 16 | 0 | 0.0 | 0.0 | 0.00 | 0.00 | 0.00 | 62 | 1017.7 |
| 20260508160801 | 16 | 0 | 0.0 | 0.0 | 0.00 | 0.00 | 0.00 | 62 | 1017.7 |
| 20260508160701 | -17 | 177 | 16.1 | 0.0 | 0.00 | 0.00 | 0.00 | ||
| 20260508160601 | 16 | 0 | 0.0 | 0.0 | 0.00 | 0.00 | 0.00 | 62 | 1017.7 |
| 20260508160501 | 16 | 0 | 0.0 | 0.0 | 0.00 | 0.00 | 0.00 | 62 | 1017.7 |
| 20260508160401 | 16 | 180 | 0.0 | 0.0 | 0.00 | 0.00 | 0.00 | 62 | 1017.6 |
| 20260508160301 | 16 | 180 | 0.0 | 0.0 | 0.00 | 0.00 | 0.00 | 62 | 1017.7 |
| 20260508160201 | 16 | 180 | 0.0 | 0.0 | 0.00 | 0.00 | 0.00 | 62 | 1017.7 |
| 20260508160101 | 16 | 180 | 0.0 | 0.0 | 0.00 | 0.00 | 0.00 | 62 | 1017.6 |
| 20260508160001 | 16 | 180 | 0.0 | 0.0 | 0.00 | 0.00 | 0.00 | 62 | 1017.7 |
| 20260508155901 | 16 | 180 | 0.0 | 0.0 | 0.00 | 0.00 | 0.00 | 62 | 1017.8 |
| 20260508155801 | 16 | 180 | 0.0 | 0.0 | 0.00 | 0.00 | 0.00 | 62 | 1017.6 |
| 20260508155701 | 16 | 0 | 0.0 | 0.0 | 0.00 | 0.00 | 0.00 | 62 | 1017.8 |
| 20260508155601 | 16 | 0 | 0.0 | 0.0 | 0.00 | 0.00 | 0.00 | 62 | 1017.6 |
| 20260508155501 | 16 | 0 | 0.0 | 0.0 | 0.00 | 0.00 | 0.00 | 62 | 1017.8 |
| 20260508155401 | 16 | 0 | 0.0 | 0.0 | 0.00 | 0.00 | 0.00 | 62 | 1017.7 |
| 20260508155301 | 16 | 0 | 0.0 | 0.0 | 0.00 | 0.00 | 0.00 | 61 | 1017.7 |
| 20260508155201 | 16 | 0 | 0.0 | 0.0 | 0.00 | 0.00 | 0.00 | 61 | 1017.7 |
| 20260508155101 | 16 | 180 | 0.0 | 0.0 | 0.00 | 0.00 | 0.00 | 61 | 1017.8 |
| 20260508155001 | 16 | 0 | 0.0 | 0.0 | 0.00 | 0.00 | 0.00 | 61 | 1017.8 |
| 20260508154901 | 16 | 180 | 0.0 | 0.0 | 0.00 | 0.00 | 0.00 | 61 | 1017.7 |
| 20260508154801 | 16 | 0 | 0.0 | 0.0 | 0.00 | 0.00 | 0.00 | 61 | 1017.7 |
| 20260508154601 | 16 | 0 | 0.0 | 0.0 | 0.00 | 0.00 | 0.00 | 60 | 1017.7 |
| 20260508154501 | 16 | 0 | 0.0 | 0.0 | 0.00 | 0.00 | 0.00 | 60 | 1017.7 |
| 20260508154401 | 16 | 0 | 0.0 | 0.0 | 0.00 | 0.00 | 0.00 | 60 | 1017.7 |
| 20260508154301 | 16 | 0 | 0.0 | 0.0 | 0.00 | 0.00 | 0.00 | 60 | 1017.7 |
| 20260508154201 | 16 | 0 | 0.0 | 0.0 | 0.00 | 0.00 | 0.00 | 60 | 1017.7 |
| 20260508154101 | 16 | 0 | 0.0 | 0.0 | 0.00 | 0.00 | 0.00 | 60 | 1017.7 |
| 20260508154001 | 16 | 180 | 0.0 | 0.0 | 0.00 | 0.00 | 0.00 | 60 | 1017.7 |
| 20260508153901 | 16 | 180 | 0.0 | 0.0 | 0.00 | 0.00 | 0.00 | 60 | 1017.6 |
| 20260508153801 | 16 | 0 | 0.0 | 0.0 | 0.00 | 0.00 | 0.00 | 60 | 1017.7 |
| 20260508153701 | 16 | 180 | 0.0 | 0.0 | 0.00 | 0.00 | 0.00 | 60 | 1017.7 |
| 20260508153501 | 16 | 180 | 0.0 | 0.0 | 0.00 | 0.00 | 0.00 | 59 | 1017.8 |
| 20260508153401 | 16 | 0 | 0.0 | 0.0 | 0.00 | 0.00 | 0.00 | 59 | 1017.6 |
| 20260508153301 | 16 | 180 | 0.0 | 0.0 | 0.00 | 0.00 | 0.00 | 59 | 1017.7 |
| 20260508153201 | 16 | 0 | 0.0 | 0.0 | 0.00 | 0.00 | 0.00 | 59 | 1017.7 |
| 20260508153101 | 16 | 180 | 0.0 | 0.0 | 0.00 | 0.00 | 0.00 | 59 | 1017.8 |
| 20260508153001 | 16 | 180 | 0.0 | 0.0 | 0.00 | 0.00 | 0.00 | 59 | 1017.7 |
| 20260508152901 | 17 | 180 | 0.0 | 0.0 | 0.00 | 0.00 | 0.00 | 59 | 1017.7 |
| 20260508152801 | 17 | 0 | 0.0 | 0.0 | 0.00 | 0.00 | 0.00 | 59 | 1017.7 |
| 20260508152701 | 17 | 0 | 0.0 | 0.0 | 0.00 | 0.00 | 0.00 | 59 | 1018.0 |
| 20260508152501 | 17 | 0 | 0.0 | 0.0 | 0.00 | 0.00 | 0.00 | 58 | 1017.7 |
| 20260508152401 | 17 | 180 | 0.0 | 0.0 | 0.00 | 0.00 | 0.00 | 58 | 1017.7 |
| 20260508152301 | 17 | 0 | 0.0 | 0.0 | 0.00 | 0.00 | 0.00 | 58 | 1017.9 |
| 20260508152201 | 17 | 180 | 0.0 | 0.0 | 0.00 | 0.00 | 0.00 | 58 | 1017.7 |
| 20260508152101 | 17 | 180 | 0.0 | 0.0 | 0.00 | 0.00 | 0.00 | 58 | 1017.7 |
| 20260508152001 | 17 | 180 | 0.0 | 0.0 | 0.00 | 0.00 | 0.00 | 58 | 1017.7 |
| 20260508151901 | 17 | 0 | 0.0 | 0.0 | 0.00 | 0.00 | 0.00 | 58 | 1017.8 |
| 20260508151801 | 17 | 180 | 0.0 | 0.0 | 0.00 | 0.00 | 0.00 | 58 | 1017.9 |
| 20260508151701 | 17 | 0 | 0.0 | 0.0 | 0.00 | 0.00 | 0.00 | 58 | 1017.7 |
| 20260508151601 | 17 | 0 | 0.0 | 0.0 | 0.00 | 0.00 | 0.00 | 58 | 1017.6 |
| 20260508151501 | 17 | 0 | 0.0 | 0.0 | 0.00 | 0.00 | 0.00 | 58 | 1017.7 |
| 20260508151401 | 17 | 180 | 0.0 | 0.0 | 0.00 | 0.00 | 0.00 | 58 | 1017.7 |
| 20260508151301 | 17 | 180 | 0.0 | 0.0 | 0.00 | 0.00 | 0.00 | 58 | 1017.6 |
| 20260508151201 | 17 | 180 | 0.0 | 0.0 | 0.00 | 0.00 | 0.00 | 58 | 1017.8 |
| 20260508151101 | 17 | 180 | 0.0 | 0.0 | 0.00 | 0.00 | 0.00 | 57 | 1017.6 |
| 20260508151001 | 17 | 0 | 0.0 | 0.0 | 0.00 | 0.00 | 0.00 | 57 | 1017.6 |
| 20260508150901 | 17 | 0 | 0.0 | 0.0 | 0.00 | 0.00 | 0.00 | 57 | 1017.7 |
| 20260508150801 | 17 | 180 | 0.0 | 0.0 | 0.00 | 0.00 | 0.00 | 57 | 1017.7 |
| 20260508150701 | 17 | 180 | 0.0 | 0.0 | 0.00 | 0.00 | 0.00 | 57 | 1017.6 |
| 20260508150601 | 17 | 180 | 0.0 | 0.0 | 0.00 | 0.00 | 0.00 | 57 | 1017.7 |
| 20260508150501 | 17 | 180 | 0.0 | 0.0 | 0.00 | 0.00 | 0.00 | 57 | 1017.7 |
| 20260508150401 | 17 | 180 | 0.0 | 0.0 | 0.00 | 0.00 | 0.00 | 57 | 1017.6 |
| 20260508150301 | 17 | 180 | 0.0 | 0.0 | 0.00 | 0.00 | 0.00 | 57 | 1017.8 |
| 20260508150201 | 17 | 0 | 0.0 | 0.0 | 0.00 | 0.00 | 0.00 | 57 | 1017.7 |
| 20260508150101 | 17 | 180 | 0.0 | 0.0 | 0.00 | 0.00 | 0.00 | 57 | 1017.7 |
| 20260508150001 | 17 | 180 | 0.0 | 0.0 | 0.00 | 0.00 | 0.00 | 57 | 1017.8 |
| 20260508145901 | 17 | 180 | 0.0 | 0.0 | 0.00 | 0.00 | 0.00 | 56 | 1017.7 |
| 20260508145801 | 17 | 180 | 0.0 | 0.0 | 0.00 | 0.00 | 0.00 | 56 | 1017.8 |
| 20260508145701 | 17 | 180 | 0.0 | 0.0 | 0.00 | 0.00 | 0.00 | 56 | 1017.8 |
| 20260508145601 | 17 | 180 | 0.0 | 1.6 | 0.00 | 0.00 | 0.00 | 56 | 1017.7 |
| 20260508145501 | 17 | 0 | 0.0 | 3.2 | 0.00 | 0.00 | 0.00 | 56 | 1017.7 |
| 20260508145401 | 17 | 180 | 0.0 | 3.2 | 0.00 | 0.00 | 0.00 | 56 | 1017.7 |
| 20260508145301 | 17 | 180 | 0.0 | 3.2 | 0.00 | 0.00 | 0.00 | 56 | 1017.8 |
| 20260508145201 | 17 | 180 | 0.0 | 3.2 | 0.00 | 0.00 | 0.00 | 56 | 1017.8 |
| 20260508145101 | 17 | 0 | 0.0 | 3.2 | 0.00 | 0.00 | 0.00 | 56 | 1017.7 |
| 20260508145000 | -17 | 178 | 14.5 | 0.0 | 0.00 | 0.00 | 0.00 | ||
| 20260508144901 | 17 | 180 | 0.0 | 3.2 | 0.00 | 0.00 | 0.00 | 56 | 1017.7 |
| 20260508144801 | 17 | 0 | 0.0 | 3.2 | 0.00 | 0.00 | 0.00 | 56 | 1017.8 |
| 20260508144701 | 17 | 180 | 0.0 | 3.2 | 0.00 | 0.00 | 0.00 | 56 | 1017.8 |
| 20260508144601 | 17 | 180 | 0.0 | 3.2 | 0.00 | 0.00 | 0.00 | 56 | 1017.8 |
| 20260508144501 | 17 | 180 | 0.0 | 3.2 | 0.00 | 0.00 | 0.00 | 56 | 1017.9 |
| 20260508144401 | 17 | 180 | 0.0 | 3.2 | 0.00 | 0.00 | 0.00 | 56 | 1017.8 |
| 20260508144301 | 17 | 180 | 0.0 | 1.6 | 0.00 | 0.00 | 0.00 | 56 | 1017.7 |
| 20260508144201 | 17 | 180 | 0.0 | 1.6 | 0.00 | 0.00 | 0.00 | 56 | 1017.7 |
| 20260508144101 | 17 | 180 | 0.0 | 1.6 | 0.00 | 0.00 | 0.00 | 56 | 1017.7 |
| 20260508144001 | 17 | 180 | 0.0 | 1.6 | 0.00 | 0.00 | 0.00 | 56 | 1017.8 |
| 20260508143901 | 17 | 180 | 0.0 | 1.6 | 0.00 | 0.00 | 0.00 | 56 | 1017.9 |
| 20260508143801 | 17 | 0 | 0.0 | 3.2 | 0.00 | 0.00 | 0.00 | 55 | 1017.8 |
| 20260508143701 | 17 | 180 | 0.0 | 3.2 | 0.00 | 0.00 | 0.00 | 55 | 1017.8 |
| 20260508143601 | 17 | 180 | 0.0 | 3.2 | 0.00 | 0.00 | 0.00 | 55 | 1017.9 |
| 20260508143501 | 17 | 180 | 0.0 | 3.2 | 0.00 | 0.00 | 0.00 | 55 | 1017.9 |
| 20260508143401 | 17 | 225 | 0.0 | 3.2 | 0.00 | 0.00 | 0.00 | 55 | 1018.0 |
| 20260508143301 | 17 | 0 | 0.0 | 3.2 | 0.00 | 0.00 | 0.00 | 55 | 1017.8 |
| 20260508143201 | 17 | 0 | 0.0 | 3.2 | 0.00 | 0.00 | 0.00 | 55 | 1017.9 |
| 20260508143101 | 17 | 180 | 0.0 | 3.2 | 0.00 | 0.00 | 0.00 | 55 | 1018.0 |
| 20260508143001 | 17 | 180 | 0.0 | 3.2 | 0.00 | 0.00 | 0.00 | 55 | 1017.8 |
| 20260508142901 | 17 | 0 | 0.0 | 3.2 | 0.00 | 0.00 | 0.00 | 55 | 1017.9 |
| 20260508142801 | 17 | 0 | 0.0 | 3.2 | 0.00 | 0.00 | 0.00 | 55 | 1018.0 |
| 20260508142701 | 18 | 0 | 0.0 | 3.2 | 0.00 | 0.00 | 0.00 | 55 | 1017.9 |
| 20260508142501 | 18 | 0 | 0.0 | 3.2 | 0.00 | 0.00 | 0.00 | 55 | 1018.0 |
| 20260508142401 | 18 | 180 | 0.0 | 3.2 | 0.00 | 0.00 | 0.00 | 55 | 1017.9 |
| 20260508142301 | 18 | 180 | 0.0 | 3.2 | 0.00 | 0.00 | 0.00 | 55 | 1017.8 |
| 20260508142201 | 18 | 180 | 0.0 | 1.6 | 0.00 | 0.00 | 0.00 | 54 | 1017.8 |
| 20260508142101 | 18 | 180 | 0.0 | 1.6 | 0.00 | 0.00 | 0.00 | 54 | 1017.9 |
| 20260508142001 | 18 | 0 | 0.0 | 1.6 | 0.00 | 0.00 | 0.00 | 54 | 1017.9 |
| 20260508141901 | 18 | 0 | 0.0 | 0.0 | 0.00 | 0.00 | 0.00 | 54 | 1018.0 |
| 20260508141801 | 18 | 0 | 0.0 | 0.0 | 0.00 | 0.00 | 0.00 | 54 | 1018.0 |
| 20260508141701 | 18 | 180 | 0.0 | 0.0 | 0.00 | 0.00 | 0.00 | 54 | 1018.0 |
| 20260508141601 | 18 | 0 | 0.0 | 0.0 | 0.00 | 0.00 | 0.00 | 54 | 1018.0 |
| 20260508141501 | 18 | 180 | 0.0 | 0.0 | 0.00 | 0.00 | 0.00 | 54 | 1018.1 |
| 20260508141401 | 18 | 0 | 0.0 | 0.0 | 0.00 | 0.00 | 0.00 | 54 | 1018.0 |
| 20260508141301 | 18 | 180 | 0.0 | 0.0 | 0.00 | 0.00 | 0.00 | 54 | 1018.0 |
| 20260508141201 | 18 | 0 | 0.0 | 0.0 | 0.00 | 0.00 | 0.00 | 54 | 1018.1 |
| 20260508141101 | 18 | 0 | 0.0 | 3.2 | 0.00 | 0.00 | 0.00 | 54 | 1017.9 |
| 20260508141001 | 18 | 180 | 0.0 | 3.2 | 0.00 | 0.00 | 0.00 | 54 | 1018.0 |
| 20260508140900 | 18 | 180 | 0.0 | 4.8 | 0.00 | 0.00 | 0.00 | 54 | 1017.8 |
| 20260508140800 | 18 | 180 | 0.0 | 4.8 | 0.00 | 0.00 | 0.00 | 54 | 1017.8 |
| 20260508140701 | 18 | 180 | 0.0 | 4.8 | 0.00 | 0.00 | 0.00 | 54 | 1017.9 |
| 20260508140601 | 18 | 0 | 0.0 | 4.8 | 0.00 | 0.00 | 0.00 | 54 | 1017.8 |
| 20260508140501 | 18 | 180 | 0.0 | 4.8 | 0.00 | 0.00 | 0.00 | 54 | 1017.9 |
| 20260508140401 | 18 | 0 | 0.0 | 4.8 | 0.00 | 0.00 | 0.00 | 54 | 1018.0 |
| 20260508140301 | 18 | 180 | 0.0 | 4.8 | 0.00 | 0.00 | 0.00 | 53 | 1017.9 |
| 20260508140200 | 18 | 0 | 0.0 | 4.8 | 0.00 | 0.00 | 0.00 | 53 | 1018.1 |
| 20260508140100 | 18 | 180 | 0.0 | 4.8 | 0.00 | 0.00 | 0.00 | 53 | 1018.1 |
| 20260508140000 | 18 | 0 | 0.0 | 4.8 | 0.00 | 0.00 | 0.00 | 53 | 1018.0 |
| 20260508135901 | 18 | 180 | 0.0 | 4.8 | 0.00 | 0.00 | 0.00 | 53 | 1018.0 |
| 20260508135801 | 18 | 0 | 0.0 | 4.8 | 0.00 | 0.00 | 0.00 | 53 | 1017.9 |
| 20260508135701 | 18 | 0 | 1.6 | 4.8 | 0.00 | 0.00 | 0.00 | 53 | 1018.0 |
| 20260508135601 | 18 | 0 | 1.6 | 4.8 | 0.00 | 0.00 | 0.00 | 54 | 1018.0 |
| 20260508135501 | 18 | 180 | 0.0 | 4.8 | 0.00 | 0.00 | 0.00 | 54 | 1017.9 |
| 20260508135400 | 18 | 180 | 0.0 | 4.8 | 0.00 | 0.00 | 0.00 | 53 | 1018.0 |
| 20260508135300 | 18 | 180 | 0.0 | 0.0 | 0.00 | 0.00 | 0.00 | 53 | 1017.9 |
| 20260508135200 | 18 | 180 | 0.0 | 0.0 | 0.00 | 0.00 | 0.00 | 53 | 1018.0 |
| 20260508135101 | 18 | 180 | 0.0 | 0.0 | 0.00 | 0.00 | 0.00 | 53 | 1018.1 |
| 20260508135001 | 18 | 180 | 0.0 | 0.0 | 0.00 | 0.00 | 0.00 | 53 | 1018.0 |
| 20260508134901 | 18 | 180 | 0.0 | 0.0 | 0.00 | 0.00 | 0.00 | 53 | 1018.2 |
| 20260508134801 | 18 | 0 | 0.0 | 4.8 | 0.00 | 0.00 | 0.00 | 53 | 1018.1 |
| 20260508134701 | 18 | 0 | 0.0 | 4.8 | 0.00 | 0.00 | 0.00 | 53 | 1018.1 |
| 20260508134600 | 18 | 0 | 0.0 | 4.8 | 0.00 | 0.00 | 0.00 | 53 | 1018.1 |
| 20260508134500 | 18 | 180 | 0.0 | 4.8 | 0.00 | 0.00 | 0.00 | 53 | 1018.0 |
| 20260508134400 | 18 | 180 | 0.0 | 4.8 | 0.00 | 0.00 | 0.00 | 53 | 1017.9 |
| 20260508134301 | 18 | 0 | 0.0 | 4.8 | 0.00 | 0.00 | 0.00 | 53 | 1018.0 |
| 20260508134201 | 18 | 0 | 0.0 | 4.8 | 0.00 | 0.00 | 0.00 | 53 | 1018.2 |
| 20260508134101 | 18 | 0 | 0.0 | 4.8 | 0.00 | 0.00 | 0.00 | 53 | 1018.0 |
| 20260508134000 | 18 | 180 | 0.0 | 4.8 | 0.00 | 0.00 | 0.00 | 53 | 1018.0 |
| 20260508133900 | 18 | 0 | 0.0 | 4.8 | 0.00 | 0.00 | 0.00 | 53 | 1018.1 |
| 20260508133800 | 18 | 180 | 0.0 | 4.8 | 0.00 | 0.00 | 0.00 | 53 | 1018.1 |
| 20260508133700 | 18 | 180 | 0.0 | 4.8 | 0.00 | 0.00 | 0.00 | 53 | 1018.1 |
| 20260508133601 | 18 | 180 | 0.0 | 4.8 | 0.00 | 0.00 | 0.00 | 53 | 1018.2 |
| 20260508133501 | 18 | 0 | 0.0 | 4.8 | 0.00 | 0.00 | 0.00 | 53 | 1018.2 |
| 20260508133401 | 18 | 0 | 1.6 | 4.8 | 0.00 | 0.00 | 0.00 | 53 | 1018.1 |
| 20260508133300 | 18 | 0 | 1.6 | 4.8 | 0.00 | 0.00 | 0.00 | 53 | 1018.0 |
| 20260508133200 | 18 | 180 | 1.6 | 4.8 | 0.00 | 0.00 | 0.00 | 53 | 1018.1 |
| 20260508133100 | 18 | 0 | 0.0 | 3.2 | 0.00 | 0.00 | 0.00 | 53 | 1017.9 |
| 20260508133000 | 18 | 180 | 0.0 | 3.2 | 0.00 | 0.00 | 0.00 | 53 | 1018.0 |
| 20260508132900 | 18 | 0 | 0.0 | 3.2 | 0.00 | 0.00 | 0.00 | 53 | 1018.0 |
| 20260508132801 | 18 | 0 | 0.0 | 4.8 | 0.00 | 0.00 | 0.00 | 53 | 1017.9 |
| 20260508132701 | 18 | 180 | 0.0 | 4.8 | 0.00 | 0.00 | 0.00 | 53 | 1017.9 |
| 20260508132600 | 18 | 0 | 0.0 | 4.8 | 0.00 | 0.00 | 0.00 | 53 | 1018.0 |
| 20260508132500 | 18 | 0 | 0.0 | 4.8 | 0.00 | 0.00 | 0.00 | 53 | 1018.1 |
| 20260508132400 | 18 | 0 | 0.0 | 4.8 | 0.00 | 0.00 | 0.00 | 53 | 1018.0 |
| 20260508132300 | 18 | 0 | 0.0 | 4.8 | 0.00 | 0.00 | 0.00 | 53 | 1018.0 |
| 20260508132200 | 18 | 180 | 0.0 | 4.8 | 0.00 | 0.00 | 0.00 | 53 | 1018.0 |
| 20260508132101 | 18 | 0 | 0.0 | 4.8 | 0.00 | 0.00 | 0.00 | 52 | 1018.1 |
| 20260508132001 | 18 | 0 | 0.0 | 4.8 | 0.00 | 0.00 | 0.00 | 52 | 1018.0 |
| 20260508131900 | 18 | 0 | 0.0 | 4.8 | 0.00 | 0.00 | 0.00 | 52 | 1018.1 |
| 20260508131800 | 18 | 180 | 0.0 | 4.8 | 0.00 | 0.00 | 0.00 | 52 | 1018.0 |
| 20260508131700 | 18 | 0 | 1.6 | 4.8 | 0.00 | 0.00 | 0.00 | 52 | 1018.1 |
| 20260508131600 | 18 | 180 | 1.6 | 4.8 | 0.00 | 0.00 | 0.00 | 52 | 1018.1 |
| 20260508131500 | 18 | 180 | 0.0 | 4.8 | 0.00 | 0.00 | 0.00 | 52 | 1018.2 |
| 20260508131400 | 18 | 0 | 0.0 | 4.8 | 0.00 | 0.00 | 0.00 | 52 | 1018.0 |
| 20260508131301 | 18 | 180 | 0.0 | 4.8 | 0.00 | 0.00 | 0.00 | 52 | 1018.1 |
| 20260508131200 | 18 | 0 | 0.0 | 4.8 | 0.00 | 0.00 | 0.00 | 52 | 1018.0 |
| 20260508131100 | 18 | 0 | 0.0 | 4.8 | 0.00 | 0.00 | 0.00 | 52 | 1018.0 |
| 20260508131000 | 18 | 180 | 0.0 | 4.8 | 0.00 | 0.00 | 0.00 | 52 | 1018.0 |
| 20260508130900 | 18 | 0 | 0.0 | 4.8 | 0.00 | 0.00 | 0.00 | 51 | 1017.9 |
| 20260508130800 | 18 | 180 | 1.6 | 4.8 | 0.00 | 0.00 | 0.00 | 51 | 1017.9 |
| 20260508130700 | 18 | 0 | 1.6 | 4.8 | 0.00 | 0.00 | 0.00 | 51 | 1017.9 |
| 20260508130600 | 18 | 0 | 1.6 | 4.8 | 0.00 | 0.00 | 0.00 | 51 | 1018.0 |
| 20260508130500 | 18 | 180 | 1.6 | 4.8 | 0.00 | 0.00 | 0.00 | 51 | 1018.0 |
| 20260508130400 | 18 | 180 | 0.0 | 4.8 | 0.00 | 0.00 | 0.00 | 51 | 1018.0 |
| 20260508130300 | 18 | 0 | 1.6 | 4.8 | 0.00 | 0.00 | 0.00 | 51 | 1017.9 |
| 20260508130200 | 18 | 1 | 4.8 | 0.0 | 0.00 | 0.00 | 0.00 | 51 | 1018.1 |
| 20260508130100 | 18 | 0 | 0.0 | 4.8 | 0.00 | 0.00 | 0.00 | 51 | 1018.1 |
| 20260508130000 | 18 | 0 | 0.0 | 4.8 | 0.00 | 0.00 | 0.00 | 50 | 1018.0 |
| 20260508125900 | 18 | 0 | 0.0 | 4.8 | 0.00 | 0.00 | 0.00 | 50 | 1017.9 |
| 20260508125800 | 18 | 0 | 0.0 | 4.8 | 0.00 | 0.00 | 0.00 | 50 | 1017.9 |
| 20260508125700 | 18 | 180 | 0.0 | 4.8 | 0.00 | 0.00 | 0.00 | 50 | 1018.0 |
| 20260508125600 | 18 | 180 | 0.0 | 4.8 | 0.00 | 0.00 | 0.00 | 50 | 1017.9 |
| 20260508125500 | 18 | 180 | 0.0 | 4.8 | 0.00 | 0.00 | 0.00 | 49 | 1017.8 |
| 20260508125400 | 19 | 0 | 0.0 | 4.8 | 0.00 | 0.00 | 0.00 | 49 | 1017.9 |
| 20260508125300 | 19 | 180 | 0.0 | 4.8 | 0.00 | 0.00 | 0.00 | 49 | 1017.8 |
| 20260508125200 | 19 | 180 | 0.0 | 4.8 | 0.00 | 0.00 | 0.00 | 49 | 1017.9 |
| 20260508125100 | 19 | 180 | 0.0 | 4.8 | 0.00 | 0.00 | 0.00 | 49 | 1017.9 |
| 20260508125000 | 19 | 180 | 1.6 | 4.8 | 0.00 | 0.00 | 0.00 | 49 | 1017.9 |
| 20260508124900 | 19 | 0 | 1.6 | 4.8 | 0.00 | 0.00 | 0.00 | 49 | 1017.8 |
| 20260508124800 | 19 | 0 | 1.6 | 4.8 | 0.00 | 0.00 | 0.00 | 48 | 1017.7 |
| 20260508124700 | 19 | 0 | 1.6 | 4.8 | 0.00 | 0.00 | 0.00 | 48 | 1017.8 |
| 20260508124600 | 19 | 0 | 0.0 | 4.8 | 0.00 | 0.00 | 0.00 | 48 | 1017.8 |
| 20260508124500 | 19 | 0 | 0.0 | 4.8 | 0.00 | 0.00 | 0.00 | 48 | 1017.9 |
| 20260508124400 | 19 | 0 | 0.0 | 4.8 | 0.00 | 0.00 | 0.00 | 48 | 1017.7 |
| 20260508124300 | 19 | 0 | 0.0 | 4.8 | 0.00 | 0.00 | 0.00 | 48 | 1017.7 |
| 20260508124200 | 19 | 225 | 0.0 | 4.8 | 0.00 | 0.00 | 0.00 | 48 | 1017.7 |
| 20260508124100 | 19 | 0 | 0.0 | 4.8 | 0.00 | 0.00 | 0.00 | 48 | 1017.7 |
| 20260508124000 | 19 | 0 | 1.6 | 4.8 | 0.00 | 0.00 | 0.00 | 48 | 1017.7 |
| 20260508123900 | 19 | 180 | 1.6 | 4.8 | 0.00 | 0.00 | 0.00 | 47 | 1017.5 |
| 20260508123800 | 19 | 0 | 3.2 | 4.8 | 0.00 | 0.00 | 0.00 | 47 | 1017.7 |
| 20260508123700 | 19 | 0 | 3.2 | 4.8 | 0.00 | 0.00 | 0.00 | 48 | 1017.7 |
| 20260508123600 | 19 | 0 | 1.6 | 4.8 | 0.00 | 0.00 | 0.00 | 48 | 1017.6 |
| 20260508123500 | 19 | 0 | 0.0 | 3.2 | 0.00 | 0.00 | 0.00 | 48 | 1017.6 |
| 20260508123400 | 19 | 0 | 0.0 | 3.2 | 0.00 | 0.00 | 0.00 | 47 | 1017.6 |
| 20260508123300 | 19 | 0 | 0.0 | 3.2 | 0.00 | 0.00 | 0.00 | 47 | 1017.6 |
| 20260508123200 | 19 | 0 | 0.0 | 3.2 | 0.00 | 0.00 | 0.00 | 47 | 1017.7 |
| 20260508123100 | 19 | 180 | 0.0 | 3.2 | 0.00 | 0.00 | 0.00 | 47 | 1017.5 |
| 20260508123000 | 19 | 0 | 0.0 | 3.2 | 0.00 | 0.00 | 0.00 | 47 | 1017.6 |
| 20260508122900 | 19 | 180 | 0.0 | 3.2 | 0.00 | 0.00 | 0.00 | 47 | 1017.6 |
| 20260508122800 | 19 | 180 | 0.0 | 3.2 | 0.00 | 0.00 | 0.00 | 48 | 1017.6 |
| 20260508122700 | 18 | 0 | 1.6 | 3.2 | 0.00 | 0.00 | 0.00 | 48 | 1017.6 |
| 20260508122600 | 18 | 0 | 0.0 | 3.2 | 0.00 | 0.00 | 0.00 | 48 | 1017.4 |
| 20260508122400 | 18 | 0 | 0.0 | 1.6 | 0.00 | 0.00 | 0.00 | 47 | 1017.6 |
| 20260508122300 | 18 | 0 | 0.0 | 0.0 | 0.00 | 0.00 | 0.00 | 47 | 1017.6 |
| 20260508122200 | 18 | 0 | 0.0 | 0.0 | 0.00 | 0.00 | 0.00 | 47 | 1017.6 |
| 20260508122100 | 18 | 0 | 0.0 | 0.0 | 0.00 | 0.00 | 0.00 | 47 | 1017.5 |
| 20260508122000 | 19 | 0 | 0.0 | 0.0 | 0.00 | 0.00 | 0.00 | 46 | 1017.5 |
| 20260508121900 | 19 | 0 | 0.0 | 1.6 | 0.00 | 0.00 | 0.00 | 46 | 1017.4 |
| 20260508121800 | 19 | 0 | 0.0 | 1.6 | 0.00 | 0.00 | 0.00 | 46 | 1017.5 |
| 20260508121700 | 19 | 0 | 0.0 | 1.6 | 0.00 | 0.00 | 0.00 | 46 | 1017.5 |
| 20260508121600 | 19 | 0 | 0.0 | 1.6 | 0.00 | 0.00 | 0.00 | 46 | 1017.3 |
| 20260508121500 | 19 | 0 | 0.0 | 1.6 | 0.00 | 0.00 | 0.00 | 46 | 1017.4 |
| 20260508121400 | 19 | 0 | 0.0 | 1.6 | 0.00 | 0.00 | 0.00 | 46 | 1017.2 |
| 20260508121300 | 19 | 0 | 0.0 | 1.6 | 0.00 | 0.00 | 0.00 | 46 | 1017.4 |
| 20260508121200 | 19 | 0 | 0.0 | 1.6 | 0.00 | 0.00 | 0.00 | 46 | 1017.4 |
| 20260508121100 | 19 | 0 | 0.0 | 1.6 | 0.00 | 0.00 | 0.00 | 46 | 1017.3 |
| 20260508121000 | 19 | 0 | 0.0 | 1.6 | 0.00 | 0.00 | 0.00 | 46 | 1017.2 |
| 20260508120900 | 19 | 180 | 0.0 | 1.6 | 0.00 | 0.00 | 0.00 | 46 | 1017.3 |
| 20260508120800 | 19 | 0 | 0.0 | 1.6 | 0.00 | 0.00 | 0.00 | 46 | 1017.3 |
| 20260508120700 | 19 | 0 | 0.0 | 1.6 | 0.00 | 0.00 | 0.00 | 46 | 1017.3 |
| 20260508120600 | 19 | 0 | 0.0 | 1.6 | 0.00 | 0.00 | 0.00 | 46 | 1017.5 |
| 20260508120500 | 19 | 0 | 0.0 | 1.6 | 0.00 | 0.00 | 0.00 | 46 | 1017.3 |
| 20260508120400 | 19 | 0 | 0.0 | 1.6 | 0.00 | 0.00 | 0.00 | 45 | 1017.3 |
| 20260508120300 | 19 | 180 | 0.0 | 1.6 | 0.00 | 0.00 | 0.00 | 45 | 1017.5 |
| 20260508120200 | 19 | 180 | 0.0 | 3.2 | 0.00 | 0.00 | 0.00 | 45 | 1017.4 |
| 20260508120100 | 19 | 180 | 0.0 | 3.2 | 0.00 | 0.00 | 0.00 | 45 | 1017.3 |
| 20260508120000 | 19 | 0 | 0.0 | 3.2 | 0.00 | 0.00 | 0.00 | 45 | 1017.3 |
| 20260508115900 | 19 | 0 | 0.0 | 3.2 | 0.00 | 0.00 | 0.00 | 45 | 1017.5 |
| 20260508115800 | 19 | 0 | 0.0 | 3.2 | 0.00 | 0.00 | 0.00 | 45 | 1017.4 |
| 20260508115700 | 19 | 0 | 0.0 | 3.2 | 0.00 | 0.00 | 0.00 | 45 | 1017.4 |
| 20260508115600 | 19 | 0 | 0.0 | 3.2 | 0.00 | 0.00 | 0.00 | 45 | 1017.3 |
| 20260508115500 | 19 | 180 | 0.0 | 3.2 | 0.00 | 0.00 | 0.00 | 45 | 1017.3 |
| 20260508115400 | 19 | 180 | 0.0 | 3.2 | 0.00 | 0.00 | 0.00 | 45 | 1017.3 |
| 20260508115300 | 19 | 180 | 0.0 | 3.2 | 0.00 | 0.00 | 0.00 | 45 | 1017.3 |
| 20260508115200 | 19 | 0 | 0.0 | 1.6 | 0.00 | 0.00 | 0.00 | 45 | 1017.3 |
| 20260508115100 | 19 | 0 | 0.0 | 0.0 | 0.00 | 0.00 | 0.00 | 45 | 1017.1 |
| 20260508115000 | 19 | 0 | 0.0 | 0.0 | 0.00 | 0.00 | 0.00 | 45 | 1017.3 |
| 20260508114900 | 19 | 180 | 0.0 | 0.0 | 0.00 | 0.00 | 0.00 | 45 | 1017.1 |
| 20260508114800 | 20 | 0 | 0.0 | 0.0 | 0.00 | 0.00 | 0.00 | 44 | 1017.1 |
| 20260508114700 | 20 | 0 | 0.0 | 0.0 | 0.00 | 0.00 | 0.00 | 44 | 1017.3 |
| 20260508114600 | 20 | 0 | 0.0 | 0.0 | 0.00 | 0.00 | 0.00 | 44 | 1017.2 |
| 20260508114500 | 20 | 0 | 0.0 | 0.0 | 0.00 | 0.00 | 0.00 | 44 | 1017.3 |
| 20260508114400 | 20 | 0 | 0.0 | 0.0 | 0.00 | 0.00 | 0.00 | 44 | 1017.3 |
| 20260508114300 | 20 | 0 | 0.0 | 0.0 | 0.00 | 0.00 | 0.00 | 44 | 1017.2 |
| 20260508114200 | 20 | 0 | 0.0 | 0.0 | 0.00 | 0.00 | 0.00 | 44 | 1017.1 |
| 20260508114100 | 20 | 0 | 0.0 | 0.0 | 0.00 | 0.00 | 0.00 | 44 | 1017.1 |
| 20260508114000 | 20 | 0 | 0.0 | 0.0 | 0.00 | 0.00 | 0.00 | 44 | 1017.2 |
| 20260508113900 | 20 | 0 | 0.0 | 1.6 | 0.00 | 0.00 | 0.00 | 43 | 1017.3 |
| 20260508113800 | 20 | 0 | 0.0 | 1.6 | 0.00 | 0.00 | 0.00 | 43 | 1017.3 |
| 20260508113700 | 20 | 0 | 0.0 | 1.6 | 0.00 | 0.00 | 0.00 | 43 | 1017.1 |
| 20260508113600 | 20 | 180 | 0.0 | 1.6 | 0.00 | 0.00 | 0.00 | 43 | 1017.3 |
| 20260508113500 | 20 | 180 | 0.0 | 1.6 | 0.00 | 0.00 | 0.00 | 43 | 1017.2 |
| 20260508113400 | 20 | 180 | 0.0 | 1.6 | 0.00 | 0.00 | 0.00 | 43 | 1017.2 |
| 20260508113300 | 20 | 180 | 0.0 | 1.6 | 0.00 | 0.00 | 0.00 | 42 | 1017.3 |
| 20260508113200 | 20 | 0 | 0.0 | 1.6 | 0.00 | 0.00 | 0.00 | 42 | 1017.3 |
| 20260508113100 | 20 | 180 | 0.0 | 1.6 | 0.00 | 0.00 | 0.00 | 42 | 1017.2 |
| 20260508113000 | 20 | 180 | 0.0 | 1.6 | 0.00 | 0.00 | 0.00 | 42 | 1017.3 |
| 20260508112900 | 20 | 180 | 0.0 | 3.2 | 0.00 | 0.00 | 0.00 | 42 | 1017.1 |
| 20260508112800 | 20 | 180 | 0.0 | 3.2 | 0.00 | 0.00 | 0.00 | 42 | 1017.1 |
| 20260508112700 | 20 | 90 | 0.0 | 3.2 | 0.00 | 0.00 | 0.00 | 42 | 1017.2 |
| 20260508112600 | 20 | 180 | 0.0 | 3.2 | 0.00 | 0.00 | 0.00 | 42 | 1017.1 |
| 20260508112501 | 20 | 180 | 0.0 | 3.2 | 0.00 | 0.00 | 0.00 | 42 | 1017.1 |
| 20260508112400 | 20 | 180 | 0.0 | 3.2 | 0.00 | 0.00 | 0.00 | 42 | 1017.0 |
| 20260508112300 | 20 | 90 | 0.0 | 3.2 | 0.00 | 0.00 | 0.00 | 42 | 1017.1 |
| 20260508112200 | 20 | 180 | 0.0 | 3.2 | 0.00 | 0.00 | 0.00 | 42 | 1017.2 |
| 20260508112100 | 20 | 180 | 0.0 | 3.2 | 0.00 | 0.00 | 0.00 | 42 | 1017.1 |
| 20260508112000 | 20 | 180 | 0.0 | 3.2 | 0.00 | 0.00 | 0.00 | 42 | 1017.0 |
| 20260508111900 | 20 | 90 | 0.0 | 3.2 | 0.00 | 0.00 | 0.00 | 42 | 1017.2 |
| 20260508111800 | 20 | 180 | 0.0 | 3.2 | 0.00 | 0.00 | 0.00 | 42 | 1017.1 |
| 20260508111700 | 20 | 90 | 0.0 | 3.2 | 0.00 | 0.00 | 0.00 | 42 | 1017.1 |
| 20260508111600 | 20 | 180 | 0.0 | 3.2 | 0.00 | 0.00 | 0.00 | 41 | 1017.3 |
| 20260508111500 | 20 | 180 | 0.0 | 3.2 | 0.00 | 0.00 | 0.00 | 41 | 1017.1 |
| 20260508111400 | 20 | 0 | 0.0 | 3.2 | 0.00 | 0.00 | 0.00 | 41 | 1017.1 |
| 20260508111300 | 20 | 180 | 0.0 | 4.8 | 0.00 | 0.00 | 0.00 | 41 | 1017.1 |
| 20260508111200 | 20 | 180 | 1.6 | 4.8 | 0.00 | 0.00 | 0.00 | 41 | 1017.1 |
| 20260508111100 | 20 | 90 | 0.0 | 4.8 | 0.00 | 0.00 | 0.00 | 41 | 1017.0 |
| 20260508111000 | 20 | 180 | 0.0 | 4.8 | 0.00 | 0.00 | 0.00 | 41 | 1017.1 |
| 20260508110900 | 20 | 180 | 0.0 | 4.8 | 0.00 | 0.00 | 0.00 | 41 | 1017.0 |
| 20260508110800 | 20 | 180 | 0.0 | 4.8 | 0.00 | 0.00 | 0.00 | 41 | 1017.0 |
| 20260508110700 | 20 | 180 | 0.0 | 4.8 | 0.00 | 0.00 | 0.00 | 41 | 1017.0 |
| 20260508110600 | 20 | 180 | 0.0 | 4.8 | 0.00 | 0.00 | 0.00 | 41 | 1017.0 |
| 20260508110500 | 20 | 180 | 0.0 | 4.8 | 0.00 | 0.00 | 0.00 | 41 | 1017.0 |
| 20260508110400 | 20 | 180 | 0.0 | 4.8 | 0.00 | 0.00 | 0.00 | 41 | 1016.9 |
| 20260508110300 | 20 | 0 | 0.0 | 3.2 | 0.00 | 0.00 | 0.00 | 41 | 1016.9 |
| 20260508110200 | 21 | 180 | 0.0 | 4.8 | 0.00 | 0.00 | 0.00 | 41 | 1017.2 |
| 20260508110100 | 21 | 180 | 0.0 | 4.8 | 0.00 | 0.00 | 0.00 | 41 | 1016.9 |
| 20260508110000 | 21 | 0 | 0.0 | 4.8 | 0.00 | 0.00 | 0.00 | 41 | 1017.0 |
| 20260508105900 | 21 | 0 | 0.0 | 4.8 | 0.00 | 0.00 | 0.00 | 41 | 1016.9 |
| 20260508105800 | 21 | 90 | 0.0 | 4.8 | 0.00 | 0.00 | 0.00 | 41 | 1017.0 |
| 20260508105700 | 21 | 180 | 0.0 | 4.8 | 0.00 | 0.00 | 0.00 | 41 | 1017.0 |
| 20260508105600 | 21 | 180 | 0.0 | 4.8 | 0.00 | 0.00 | 0.00 | 40 | 1016.9 |
| 20260508105500 | 21 | 180 | 0.0 | 4.8 | 0.00 | 0.00 | 0.00 | 40 | 1016.9 |
| 20260508105400 | 21 | 90 | 0.0 | 4.8 | 0.00 | 0.00 | 0.00 | 40 | 1017.0 |
| 20260508105300 | 21 | 0 | 0.0 | 4.8 | 0.00 | 0.00 | 0.00 | 40 | 1017.0 |
| 20260508105200 | 21 | 0 | 0.0 | 4.8 | 0.00 | 0.00 | 0.00 | 40 | 1016.8 |
| 20260508105100 | 21 | 180 | 1.6 | 4.8 | 0.00 | 0.00 | 0.00 | 40 | 1017.0 |
| 20260508105000 | 21 | 180 | 1.6 | 4.8 | 0.00 | 0.00 | 0.00 | 40 | 1017.0 |
| 20260508104900 | 21 | 180 | 1.6 | 4.8 | 0.00 | 0.00 | 0.00 | 40 | 1016.9 |
| 20260508104800 | 21 | 180 | 1.6 | 4.8 | 0.00 | 0.00 | 0.00 | 40 | 1017.0 |
| 20260508104700 | 21 | 90 | 1.6 | 4.8 | 0.00 | 0.00 | 0.00 | 40 | 1016.8 |
| 20260508104600 | 21 | 90 | 1.6 | 4.8 | 0.00 | 0.00 | 0.00 | 40 | 1017.0 |
| 20260508104500 | 21 | 180 | 0.0 | 4.8 | 0.00 | 0.00 | 0.00 | 39 | 1017.0 |
| 20260508104400 | 21 | 180 | 0.0 | 4.8 | 0.00 | 0.00 | 0.00 | 39 | 1016.8 |
| 20260508104300 | 21 | 0 | 1.6 | 4.8 | 0.00 | 0.00 | 0.00 | 39 | 1016.9 |
| 20260508104200 | 21 | 225 | 1.6 | 4.8 | 0.00 | 0.00 | 0.00 | 39 | 1016.8 |
| 20260508104100 | 21 | 180 | 0.0 | 4.8 | 0.00 | 0.00 | 0.00 | 39 | 1017.0 |
| 20260508104000 | 21 | 0 | 0.0 | 4.8 | 0.00 | 0.00 | 0.00 | 39 | 1016.8 |
| 20260508103900 | 21 | 180 | 1.6 | 4.8 | 0.00 | 0.00 | 0.00 | 39 | 1016.8 |
| 20260508103800 | 21 | 180 | 1.6 | 4.8 | 0.00 | 0.00 | 0.00 | 39 | 1016.8 |
| 20260508103700 | 21 | 180 | 1.6 | 4.8 | 0.00 | 0.00 | 0.00 | 39 | 1016.8 |
| 20260508103600 | 21 | 180 | 1.6 | 4.8 | 0.00 | 0.00 | 0.00 | 39 | 1016.8 |
| 20260508103500 | 21 | 180 | 1.6 | 4.8 | 0.00 | 0.00 | 0.00 | 39 | 1016.9 |
| 20260508103400 | 21 | 0 | 0.0 | 4.8 | 0.00 | 0.00 | 0.00 | 39 | 1016.7 |
| 20260508103300 | 21 | 0 | 0.0 | 4.8 | 0.00 | 0.00 | 0.00 | 39 | 1016.7 |
| 20260508103200 | 21 | 180 | 1.6 | 4.8 | 0.00 | 0.00 | 0.00 | 39 | 1016.9 |
| 20260508103100 | 21 | 180 | 1.6 | 4.8 | 0.00 | 0.00 | 0.00 | 39 | 1016.7 |
| 20260508103000 | 21 | 180 | 0.0 | 4.8 | 0.00 | 0.00 | 0.00 | 39 | 1016.7 |
| 20260508102900 | 21 | 180 | 0.0 | 3.2 | 0.00 | 0.00 | 0.00 | 39 | 1016.6 |
| 20260508102800 | 21 | 180 | 0.0 | 4.8 | 0.00 | 0.00 | 0.00 | 39 | 1016.8 |
| 20260508102700 | 21 | 180 | 0.0 | 4.8 | 0.00 | 0.00 | 0.00 | 39 | 1016.6 |
| 20260508102600 | 21 | 180 | 0.0 | 4.8 | 0.00 | 0.00 | 0.00 | 39 | 1016.9 |
| 20260508102500 | 21 | 180 | 0.0 | 4.8 | 0.00 | 0.00 | 0.00 | 38 | 1016.8 |
| 20260508102400 | 21 | 0 | 0.0 | 4.8 | 0.00 | 0.00 | 0.00 | 38 | 1016.6 |
| 20260508102300 | 21 | 90 | 0.0 | 4.8 | 0.00 | 0.00 | 0.00 | 38 | 1016.6 |
| 20260508102200 | 21 | 180 | 0.0 | 4.8 | 0.00 | 0.00 | 0.00 | 38 | 1016.7 |
| 20260508102100 | 21 | 0 | 0.0 | 4.8 | 0.00 | 0.00 | 0.00 | 38 | 1016.7 |
| 20260508102000 | 21 | 180 | 0.0 | 4.8 | 0.00 | 0.00 | 0.00 | 38 | 1016.7 |
| 20260508101900 | 21 | 180 | 1.6 | 4.8 | 0.00 | 0.00 | 0.00 | 38 | 1016.6 |
| 20260508101759 | 21 | 180 | 1.6 | 4.8 | 0.00 | 0.00 | 0.00 | 38 | 1016.7 |
| 20260508101700 | 21 | 180 | 1.6 | 4.8 | 0.00 | 0.00 | 0.00 | 38 | 1016.6 |
| 20260508101600 | 21 | 225 | 0.0 | 4.8 | 0.00 | 0.00 | 0.00 | 38 | 1016.5 |
| 20260508101500 | 21 | 180 | 0.0 | 4.8 | 0.00 | 0.00 | 0.00 | 38 | 1016.5 |
| 20260508101400 | 21 | 90 | 1.6 | 4.8 | 0.00 | 0.00 | 0.00 | 38 | 1016.4 |
| 20260508101259 | 21 | 180 | 1.6 | 4.8 | 0.00 | 0.00 | 0.00 | 38 | 1016.5 |
| 20260508101159 | 22 | 90 | 1.6 | 4.8 | 0.00 | 0.00 | 0.00 | 38 | 1016.5 |
| 20260508101100 | 22 | 180 | 1.6 | 4.8 | 0.00 | 0.00 | 0.00 | 38 | 1016.4 |
| 20260508101000 | 22 | 180 | 0.0 | 4.8 | 0.00 | 0.00 | 0.00 | 38 | 1016.4 |
| 20260508100900 | 22 | 180 | 0.0 | 4.8 | 0.00 | 0.00 | 0.00 | 38 | 1016.4 |
| 20260508100800 | 22 | 90 | 0.0 | 4.8 | 0.00 | 0.00 | 0.00 | 38 | 1016.5 |
| 20260508100700 | 22 | 180 | 0.0 | 6.4 | 0.00 | 0.00 | 0.00 | 38 | 1016.6 |
| 20260508100559 | 22 | 90 | 0.0 | 6.4 | 0.00 | 0.00 | 0.00 | 38 | 1016.4 |
| 20260508100459 | 22 | 180 | 1.6 | 6.4 | 0.00 | 0.00 | 0.00 | 38 | 1016.5 |
| 20260508100400 | 22 | 180 | 1.6 | 6.4 | 0.00 | 0.00 | 0.00 | 38 | 1016.5 |
| 20260508100300 | 22 | 180 | 1.6 | 6.4 | 0.00 | 0.00 | 0.00 | 37 | 1016.6 |
| 20260508100200 | 22 | 180 | 3.2 | 6.4 | 0.00 | 0.00 | 0.00 | 37 | 1016.5 |
| 20260508100059 | 22 | 180 | 1.6 | 6.4 | 0.00 | 0.00 | 0.00 | 38 | 1016.5 |
| 20260508095959 | 22 | 180 | 1.6 | 6.4 | 0.00 | 0.00 | 0.00 | 38 | 1016.6 |
| 20260508095859 | 22 | 180 | 1.6 | 6.4 | 0.00 | 0.00 | 0.00 | 38 | 1016.8 |
| 20260508095759 | 22 | 180 | 0.0 | 6.4 | 0.00 | 0.00 | 0.00 | 38 | 1016.6 |
| 20260508095700 | 22 | 0 | 0.0 | 4.8 | 0.00 | 0.00 | 0.00 | 38 | 1016.5 |
| 20260508095559 | 22 | 180 | 0.0 | 4.8 | 0.00 | 0.00 | 0.00 | 38 | 1016.6 |
| 20260508095459 | 22 | 90 | 0.0 | 4.8 | 0.00 | 0.00 | 0.00 | 38 | 1016.9 |
| 20260508095359 | 22 | 90 | 1.6 | 6.4 | 0.00 | 0.00 | 0.00 | 38 | 1016.5 |
| 20260508095259 | 22 | 90 | 0.0 | 6.4 | 0.00 | 0.00 | 0.00 | 38 | 1016.5 |
| 20260508095159 | 22 | 90 | 0.0 | 6.4 | 0.00 | 0.00 | 0.00 | 39 | 1016.5 |
| 20260508095059 | 22 | 90 | 0.0 | 6.4 | 0.00 | 0.00 | 0.00 | 39 | 1016.5 |
| 20260508094959 | 22 | 180 | 0.0 | 6.4 | 0.00 | 0.00 | 0.00 | 39 | 1016.7 |
| 20260508094859 | 22 | 90 | 1.6 | 6.4 | 0.00 | 0.00 | 0.00 | 38 | 1016.6 |
| 20260508094759 | 22 | 90 | 1.6 | 6.4 | 0.00 | 0.00 | 0.00 | 38 | 1016.6 |
| 20260508094659 | 22 | 90 | 1.6 | 6.4 | 0.00 | 0.00 | 0.00 | 38 | 1016.6 |
| 20260508094600 | 22 | 90 | 3.2 | 6.4 | 0.00 | 0.00 | 0.00 | 39 | 1016.5 |
| 20260508094459 | 22 | 90 | 3.2 | 6.4 | 0.00 | 0.00 | 0.00 | 38 | 1016.4 |
| 20260508094359 | 22 | 180 | 3.2 | 4.8 | 0.00 | 0.00 | 0.00 | 39 | 1016.4 |
| 20260508094259 | 22 | 180 | 1.6 | 4.8 | 0.00 | 0.00 | 0.00 | 38 | 1016.5 |
| 20260508094159 | 22 | 90 | 1.6 | 4.8 | 0.00 | 0.00 | 0.00 | 38 | 1016.4 |
| 20260508094059 | 22 | 90 | 3.2 | 4.8 | 0.00 | 0.00 | 0.00 | 38 | 1016.5 |
| 20260508093959 | 22 | 180 | 1.6 | 4.8 | 0.00 | 0.00 | 0.00 | 38 | 1016.5 |
| 20260508093859 | 22 | 180 | 1.6 | 4.8 | 0.00 | 0.00 | 0.00 | 38 | 1016.6 |
| 20260508093759 | 22 | 180 | 1.6 | 4.8 | 0.00 | 0.00 | 0.00 | 38 | 1016.8 |
| 20260508093659 | 22 | 180 | 1.6 | 4.8 | 0.00 | 0.00 | 0.00 | 38 | 1016.8 |
| 20260508093559 | 22 | 180 | 1.6 | 4.8 | 0.00 | 0.00 | 0.00 | 38 | 1016.6 |
| 20260508093459 | 22 | 180 | 1.6 | 4.8 | 0.00 | 0.00 | 0.00 | 38 | 1016.8 |
| 20260508093359 | 22 | 180 | 1.6 | 4.8 | 0.00 | 0.00 | 0.00 | 38 | 1016.7 |
| 20260508093259 | 22 | 90 | 1.6 | 4.8 | 0.00 | 0.00 | 0.00 | 38 | 1016.6 |
| 20260508093159 | 22 | 90 | 1.6 | 4.8 | 0.00 | 0.00 | 0.00 | 38 | 1016.7 |
| 20260508093059 | 22 | 90 | 1.6 | 4.8 | 0.00 | 0.00 | 0.00 | 38 | 1016.7 |
| 20260508092959 | 22 | 90 | 1.6 | 6.4 | 0.00 | 0.00 | 0.00 | 38 | 1016.7 |
| 20260508092859 | 22 | 90 | 1.6 | 6.4 | 0.00 | 0.00 | 0.00 | 38 | 1016.8 |
| 20260508092759 | 22 | 90 | 3.2 | 6.4 | 0.00 | 0.00 | 0.00 | 38 | 1016.8 |
| 20260508092659 | 22 | 90 | 1.6 | 6.4 | 0.00 | 0.00 | 0.00 | 38 | 1016.9 |
| 20260508092559 | 22 | 180 | 1.6 | 6.4 | 0.00 | 0.00 | 0.00 | 38 | 1016.8 |
| 20260508092459 | 22 | 180 | 1.6 | 6.4 | 0.00 | 0.00 | 0.00 | 38 | 1016.9 |
| 20260508092359 | 22 | 180 | 1.6 | 6.4 | 0.00 | 0.00 | 0.00 | 38 | 1017.0 |
| 20260508092259 | 22 | 90 | 1.6 | 6.4 | 0.00 | 0.00 | 0.00 | 37 | 1016.8 |
| 20260508092159 | 22 | 45 | 3.2 | 6.4 | 0.00 | 0.00 | 0.00 | 37 | 1016.9 |
| 20260508092059 | 22 | 180 | 3.2 | 6.4 | 0.00 | 0.00 | 0.00 | 37 | 1016.9 |
| 20260508091959 | 22 | 90 | 3.2 | 6.4 | 0.00 | 0.00 | 0.00 | 37 | 1016.8 |
| 20260508091859 | 22 | 90 | 1.6 | 4.8 | 0.00 | 0.00 | 0.00 | 38 | 1016.9 |
| 20260508091759 | 23 | 180 | 1.6 | 4.8 | 0.00 | 0.00 | 0.00 | 38 | 1017.0 |
| 20260508091659 | 22 | 180 | 1.6 | 4.8 | 0.00 | 0.00 | 0.00 | 38 | 1017.1 |
| 20260508091559 | 22 | 45 | 1.6 | 6.4 | 0.00 | 0.00 | 0.00 | 37 | 1017.0 |
| 20260508091459 | 22 | 180 | 1.6 | 6.4 | 0.00 | 0.00 | 0.00 | 37 | 1017.1 |
| 20260508091359 | 22 | 180 | 1.6 | 6.4 | 0.00 | 0.00 | 0.00 | 37 | 1017.1 |
| 20260508091259 | 22 | 90 | 1.6 | 6.4 | 0.00 | 0.00 | 0.00 | 37 | 1017.0 |
| 20260508091159 | 22 | 180 | 1.6 | 6.4 | 0.00 | 0.00 | 0.00 | 37 | 1017.0 |
| 20260508091059 | 22 | 90 | 0.0 | 6.4 | 0.00 | 0.00 | 0.00 | 38 | 1016.9 |
| 20260508090959 | 22 | 180 | 0.0 | 6.4 | 0.00 | 0.00 | 0.00 | 37 | 1017.0 |
| 20260508090859 | 22 | 180 | 1.6 | 6.4 | 0.00 | 0.00 | 0.00 | 37 | 1017.0 |
| 20260508090759 | 22 | 90 | 3.2 | 6.4 | 0.00 | 0.00 | 0.00 | 37 | 1017.0 |
| 20260508090659 | 22 | 90 | 3.2 | 6.4 | 0.00 | 0.00 | 0.00 | 37 | 1017.0 |
| 20260508090559 | 22 | 90 | 3.2 | 6.4 | 0.00 | 0.00 | 0.00 | 37 | 1017.0 |
| 20260508090459 | 22 | 180 | 1.6 | 6.4 | 0.00 | 0.00 | 0.00 | 36 | 1017.0 |
| 20260508090359 | 22 | 180 | 3.2 | 6.4 | 0.00 | 0.00 | 0.00 | 36 | 1017.0 |
| 20260508090259 | 22 | 2 | 6.4 | 0.0 | 0.00 | 0.00 | 0.00 | 37 | 1017.0 |
| 20260508090159 | 22 | 180 | 3.2 | 6.4 | 0.00 | 0.00 | 0.00 | 36 | 1017.1 |
| 20260508090059 | 22 | 180 | 3.2 | 6.4 | 0.00 | 0.00 | 0.00 | 37 | 1017.0 |
| 20260508085959 | 22 | 180 | 3.2 | 6.4 | 0.00 | 0.00 | 0.00 | 37 | 1017.1 |
| 20260508085859 | 22 | 180 | 3.2 | 6.4 | 0.00 | 0.00 | 0.00 | 36 | 1017.1 |
| 20260508085759 | 22 | 180 | 1.6 | 6.4 | 0.00 | 0.00 | 0.00 | 36 | 1017.0 |
| 20260508085659 | 23 | 90 | 1.6 | 6.4 | 0.00 | 0.00 | 0.00 | 36 | 1017.1 |
| 20260508085559 | 23 | 90 | 1.6 | 6.4 | 0.00 | 0.00 | 0.00 | 36 | 1017.1 |
| 20260508085459 | 23 | 90 | 3.2 | 6.4 | 0.00 | 0.00 | 0.00 | 35 | 1017.0 |
| 20260508085359 | 23 | 180 | 3.2 | 6.4 | 0.00 | 0.00 | 0.00 | 35 | 1017.1 |
| 20260508085259 | 23 | 180 | 3.2 | 6.4 | 0.00 | 0.00 | 0.00 | 35 | 1017.0 |
| 20260508085159 | 23 | 90 | 3.2 | 4.8 | 0.00 | 0.00 | 0.00 | 35 | 1016.9 |
| 20260508085059 | 23 | 180 | 3.2 | 4.8 | 0.00 | 0.00 | 0.00 | 35 | 1017.0 |
| 20260508084959 | 23 | 90 | 1.6 | 4.8 | 0.00 | 0.00 | 0.00 | 35 | 1016.9 |
| 20260508084859 | 23 | 90 | 1.6 | 4.8 | 0.00 | 0.00 | 0.00 | 35 | 1016.9 |
| 20260508084759 | 23 | 180 | 1.6 | 4.8 | 0.00 | 0.00 | 0.00 | 35 | 1016.9 |
| 20260508084659 | 23 | 180 | 1.6 | 4.8 | 0.00 | 0.00 | 0.00 | 35 | 1016.9 |
| 20260508084559 | 23 | 180 | 3.2 | 4.8 | 0.00 | 0.00 | 0.00 | 35 | 1016.9 |
| 20260508084459 | 23 | 180 | 3.2 | 4.8 | 0.00 | 0.00 | 0.00 | 35 | 1016.8 |
| 20260508084359 | 23 | 180 | 1.6 | 4.8 | 0.00 | 0.00 | 0.00 | 35 | 1016.9 |
| 20260508084259 | 23 | 180 | 1.6 | 6.4 | 0.00 | 0.00 | 0.00 | 35 | 1016.8 |
| 20260508084159 | 23 | 180 | 3.2 | 6.4 | 0.00 | 0.00 | 0.00 | 35 | 1016.7 |
| 20260508084059 | 23 | 180 | 1.6 | 6.4 | 0.00 | 0.00 | 0.00 | 35 | 1016.9 |
| 20260508083959 | 23 | 180 | 0.0 | 6.4 | 0.00 | 0.00 | 0.00 | 35 | 1016.8 |
| 20260508083759 | 23 | 90 | 0.0 | 6.4 | 0.00 | 0.00 | 0.00 | 35 | 1016.7 |
| 20260508083659 | 23 | 90 | 0.0 | 6.4 | 0.00 | 0.00 | 0.00 | 35 | 1016.8 |
| 20260508083559 | 23 | 180 | 3.2 | 6.4 | 0.00 | 0.00 | 0.00 | 35 | 1016.7 |
| 20260508083459 | 23 | 90 | 3.2 | 6.4 | 0.00 | 0.00 | 0.00 | 35 | 1016.7 |
| 20260508083359 | 23 | 90 | 3.2 | 6.4 | 0.00 | 0.00 | 0.00 | 35 | 1016.6 |
| 20260508083259 | 23 | 90 | 3.2 | 6.4 | 0.00 | 0.00 | 0.00 | 35 | 1016.7 |
| 20260508083159 | 23 | 90 | 3.2 | 6.4 | 0.00 | 0.00 | 0.00 | 35 | 1016.5 |
| 20260508083059 | 23 | 90 | 3.2 | 6.4 | 0.00 | 0.00 | 0.00 | 35 | 1016.6 |
| 20260508082959 | 23 | 90 | 3.2 | 6.4 | 0.00 | 0.00 | 0.00 | 34 | 1016.4 |
| 20260508082859 | 23 | 90 | 3.2 | 6.4 | 0.00 | 0.00 | 0.00 | 34 | 1016.4 |
| 20260508082759 | 23 | 90 | 3.2 | 6.4 | 0.00 | 0.00 | 0.00 | 34 | 1016.4 |
| 20260508082659 | 23 | 180 | 3.2 | 6.4 | 0.00 | 0.00 | 0.00 | 34 | 1016.4 |
| 20260508082559 | 23 | 180 | 1.6 | 6.4 | 0.00 | 0.00 | 0.00 | 34 | 1016.5 |
| 20260508082459 | 23 | 180 | 3.2 | 6.4 | 0.00 | 0.00 | 0.00 | 34 | 1016.6 |
| 20260508082359 | 23 | 90 | 3.2 | 6.4 | 0.00 | 0.00 | 0.00 | 33 | 1016.6 |
| 20260508082259 | 23 | 180 | 3.2 | 6.4 | 0.00 | 0.00 | 0.00 | 33 | 1016.6 |
| 20260508082159 | 23 | 180 | 3.2 | 6.4 | 0.00 | 0.00 | 0.00 | 33 | 1016.7 |
| 20260508082059 | 23 | 180 | 3.2 | 6.4 | 0.00 | 0.00 | 0.00 | 33 | 1016.6 |
| 20260508081959 | 24 | 90 | 3.2 | 6.4 | 0.00 | 0.00 | 0.00 | 33 | 1016.6 |
| 20260508081859 | 24 | 90 | 3.2 | 6.4 | 0.00 | 0.00 | 0.00 | 33 | 1016.7 |
| 20260508081759 | 24 | 180 | 3.2 | 6.4 | 0.00 | 0.00 | 0.00 | 32 | 1016.6 |
| 20260508081659 | 24 | 45 | 3.2 | 6.4 | 0.00 | 0.00 | 0.00 | 32 | 1016.5 |
| 20260508081559 | 24 | 90 | 3.2 | 6.4 | 0.00 | 0.00 | 0.00 | 32 | 1016.7 |
| 20260508081459 | 24 | 90 | 3.2 | 6.4 | 0.00 | 0.00 | 0.00 | 33 | 1016.4 |
| 20260508081359 | 24 | 180 | 1.6 | 6.4 | 0.00 | 0.00 | 0.00 | 33 | 1016.5 |
| 20260508081259 | 24 | 180 | 1.6 | 6.4 | 0.00 | 0.00 | 0.00 | 33 | 1016.4 |
| 20260508081159 | 24 | 45 | 1.6 | 6.4 | 0.00 | 0.00 | 0.00 | 33 | 1016.5 |
| 20260508081059 | 24 | 45 | 0.0 | 6.4 | 0.00 | 0.00 | 0.00 | 33 | 1016.6 |
| 20260508080959 | 24 | 0 | 6.4 | 0.0 | 0.00 | 0.00 | 0.00 | 33 | 1016.6 |
| 20260508080858 | -17 | 166 | 8.0 | 0.0 | 0.00 | 0.00 | 0.00 | ||
| 20260508080759 | 25 | 180 | 1.6 | 6.4 | 0.00 | 0.00 | 0.00 | 33 | 1016.6 |
| 20260508080659 | 25 | 90 | 1.6 | 6.4 | 0.00 | 0.00 | 0.00 | 33 | 1016.7 |
| 20260508080559 | 25 | 45 | 3.2 | 6.4 | 0.00 | 0.00 | 0.00 | 32 | 1016.7 |
| 20260508080459 | 25 | 90 | 3.2 | 6.4 | 0.00 | 0.00 | 0.00 | 32 | 1016.6 |
| 20260508080359 | 25 | 180 | 1.6 | 6.4 | 0.00 | 0.00 | 0.00 | 32 | 1016.5 |
| 20260508080259 | 25 | 180 | 1.6 | 9.7 | 0.00 | 0.00 | 0.00 | 32 | 1016.7 |